<?xml version="1.0" encoding="UTF-8" standalone="no" ?>
<gpx xmlns="http://www.topografix.com/GPX/1/1" xmlns:xsi="http://www.w3.org/2001/XMLSchema-instance" xsi:schemaLocation="http://www.topografix.com/GPX/1/1 http://www.topografix.com/GPX/1/1/gpx.xsd" version="1.1" creator="VisuGPX - https://www.visugpx.com">
  <metadata>
    <name>Blaye-Mazeray</name>
  </metadata>
  <trk>
    <name><![CDATA[Blaye-Mazeray_1]]></name>
    <trkseg>
      <trkpt lat="45.12346" lon="-0.66207">
        <ele>13.9</ele>
      </trkpt>
      <trkpt lat="45.12346" lon="-0.66207">
        <ele>13.9</ele>
      </trkpt>
    </trkseg>
  </trk>
  <trk>
    <name><![CDATA[Blaye-Mazeray_2]]></name>
    <trkseg>
      <trkpt lat="45.13165" lon="-0.66428">
        <ele>16</ele>
        <time>2017-01-12T20:36:00Z</time>
      </trkpt>
      <trkpt lat="45.13107" lon="-0.66297">
        <ele>13</ele>
        <time>2017-01-12T20:36:20Z</time>
      </trkpt>
      <trkpt lat="45.13026" lon="-0.66284">
        <ele>10</ele>
        <time>2017-01-12T20:36:40Z</time>
      </trkpt>
      <trkpt lat="45.12941" lon="-0.66291">
        <ele>9</ele>
        <time>2017-01-12T20:37:00Z</time>
      </trkpt>
      <trkpt lat="45.12777" lon="-0.66389">
        <ele>7</ele>
        <time>2017-01-12T20:37:20Z</time>
      </trkpt>
      <trkpt lat="45.12726" lon="-0.66398">
        <ele>5</ele>
        <time>2017-01-12T20:37:40Z</time>
      </trkpt>
      <trkpt lat="45.12682" lon="-0.66445">
        <ele>5</ele>
        <time>2017-01-12T20:38:00Z</time>
      </trkpt>
      <trkpt lat="45.12658" lon="-0.6643">
        <ele>4</ele>
        <time>2017-01-12T20:38:20Z</time>
      </trkpt>
      <trkpt lat="45.1265" lon="-0.66383">
        <ele>7</ele>
        <time>2017-01-12T20:38:40Z</time>
      </trkpt>
      <trkpt lat="45.12715" lon="-0.6631">
        <ele>9</ele>
        <time>2017-01-12T20:39:00Z</time>
      </trkpt>
      <trkpt lat="45.13165" lon="-0.66428">
        <ele>16</ele>
        <time>2017-01-12T20:36:00Z</time>
      </trkpt>
      <trkpt lat="45.13198" lon="-0.66419">
        <ele>14</ele>
        <time>2017-01-12T20:35:40Z</time>
      </trkpt>
      <trkpt lat="45.13298" lon="-0.66314">
        <ele>15</ele>
        <time>2017-01-12T20:35:20Z</time>
      </trkpt>
      <trkpt lat="45.13497" lon="-0.66147">
        <ele>11</ele>
        <time>2017-01-12T20:35:00Z</time>
      </trkpt>
      <trkpt lat="45.13465" lon="-0.66117">
        <ele>11</ele>
        <time>2017-01-12T20:34:40Z</time>
      </trkpt>
      <trkpt lat="45.13521" lon="-0.66068">
        <ele>10</ele>
        <time>2017-01-12T20:34:20Z</time>
      </trkpt>
      <trkpt lat="45.13574" lon="-0.65992">
        <ele>10</ele>
        <time>2017-01-12T20:34:00Z</time>
      </trkpt>
      <trkpt lat="45.13719" lon="-0.65851">
        <ele>9</ele>
        <time>2017-01-12T20:33:40Z</time>
      </trkpt>
      <trkpt lat="45.13777" lon="-0.65836">
        <ele>11</ele>
        <time>2017-01-12T20:33:20Z</time>
      </trkpt>
      <trkpt lat="45.14268" lon="-0.65428">
        <ele>18</ele>
        <time>2017-01-12T20:33:00Z</time>
      </trkpt>
      <trkpt lat="45.14326" lon="-0.65405">
        <ele>20</ele>
        <time>2017-01-12T20:32:40Z</time>
      </trkpt>
      <trkpt lat="45.14349" lon="-0.65387">
        <ele>21</ele>
        <time>2017-01-12T20:32:20Z</time>
      </trkpt>
      <trkpt lat="45.14391" lon="-0.65299">
        <ele>22</ele>
        <time>2017-01-12T20:32:00Z</time>
      </trkpt>
      <trkpt lat="45.14477" lon="-0.65211">
        <ele>18</ele>
        <time>2017-01-12T20:31:40Z</time>
      </trkpt>
      <trkpt lat="45.14532" lon="-0.65134">
        <ele>15</ele>
        <time>2017-01-12T20:31:20Z</time>
      </trkpt>
      <trkpt lat="45.146" lon="-0.651">
        <ele>12</ele>
        <time>2017-01-12T20:31:00Z</time>
      </trkpt>
      <trkpt lat="45.14597" lon="-0.65085">
        <ele>12</ele>
        <time>2017-01-12T20:30:40Z</time>
      </trkpt>
      <trkpt lat="45.14718" lon="-0.65033">
        <ele>10</ele>
        <time>2017-01-12T20:30:20Z</time>
      </trkpt>
      <trkpt lat="45.14635" lon="-0.64847">
        <ele>11</ele>
        <time>2017-01-12T20:30:00Z</time>
      </trkpt>
      <trkpt lat="45.1468" lon="-0.64795">
        <ele>13</ele>
        <time>2017-01-12T20:29:40Z</time>
      </trkpt>
      <trkpt lat="45.14654" lon="-0.64714">
        <ele>13</ele>
        <time>2017-01-12T20:29:20Z</time>
      </trkpt>
      <trkpt lat="45.14666" lon="-0.6469">
        <ele>13</ele>
        <time>2017-01-12T20:29:00Z</time>
      </trkpt>
      <trkpt lat="45.14592" lon="-0.64557">
        <ele>16</ele>
        <time>2017-01-12T20:28:40Z</time>
      </trkpt>
      <trkpt lat="45.14567" lon="-0.64566">
        <ele>16</ele>
        <time>2017-01-12T20:28:20Z</time>
      </trkpt>
      <trkpt lat="45.14554" lon="-0.64465">
        <ele>17</ele>
        <time>2017-01-12T20:28:00Z</time>
      </trkpt>
      <trkpt lat="45.14594" lon="-0.64413">
        <ele>16</ele>
        <time>2017-01-12T20:27:40Z</time>
      </trkpt>
      <trkpt lat="45.14498" lon="-0.64093">
        <ele>18</ele>
        <time>2017-01-12T20:27:20Z</time>
      </trkpt>
      <trkpt lat="45.14494" lon="-0.64053">
        <ele>19</ele>
        <time>2017-01-12T20:27:00Z</time>
      </trkpt>
      <trkpt lat="45.1461" lon="-0.63937">
        <ele>20</ele>
        <time>2017-01-12T20:26:40Z</time>
      </trkpt>
      <trkpt lat="45.14768" lon="-0.63868">
        <ele>25</ele>
        <time>2017-01-12T20:26:20Z</time>
      </trkpt>
      <trkpt lat="45.14863" lon="-0.63812">
        <ele>26</ele>
        <time>2017-01-12T20:26:00Z</time>
      </trkpt>
      <trkpt lat="45.14975" lon="-0.63722">
        <ele>27</ele>
        <time>2017-01-12T20:25:40Z</time>
      </trkpt>
      <trkpt lat="45.15058" lon="-0.63664">
        <ele>28</ele>
        <time>2017-01-12T20:25:20Z</time>
      </trkpt>
      <trkpt lat="45.15151" lon="-0.63649">
        <ele>29</ele>
        <time>2017-01-12T20:25:00Z</time>
      </trkpt>
      <trkpt lat="45.1535" lon="-0.63643">
        <ele>30</ele>
        <time>2017-01-12T20:24:40Z</time>
      </trkpt>
      <trkpt lat="45.15452" lon="-0.63593">
        <ele>32</ele>
        <time>2017-01-12T20:24:20Z</time>
      </trkpt>
      <trkpt lat="45.15549" lon="-0.63499">
        <ele>33</ele>
        <time>2017-01-12T20:24:00Z</time>
      </trkpt>
      <trkpt lat="45.15664" lon="-0.634">
        <ele>31</ele>
        <time>2017-01-12T20:23:40Z</time>
      </trkpt>
      <trkpt lat="45.15758" lon="-0.63338">
        <ele>29</ele>
        <time>2017-01-12T20:23:20Z</time>
      </trkpt>
      <trkpt lat="45.15963" lon="-0.63265">
        <ele>28</ele>
        <time>2017-01-12T20:23:00Z</time>
      </trkpt>
      <trkpt lat="45.16071" lon="-0.63197">
        <ele>26</ele>
        <time>2017-01-12T20:22:40Z</time>
      </trkpt>
      <trkpt lat="45.16093" lon="-0.63121">
        <ele>24</ele>
        <time>2017-01-12T20:22:20Z</time>
      </trkpt>
      <trkpt lat="45.1611" lon="-0.62937">
        <ele>26</ele>
        <time>2017-01-12T20:22:00Z</time>
      </trkpt>
      <trkpt lat="45.16101" lon="-0.62853">
        <ele>28</ele>
        <time>2017-01-12T20:21:40Z</time>
      </trkpt>
      <trkpt lat="45.16078" lon="-0.62804">
        <ele>29</ele>
        <time>2017-01-12T20:21:20Z</time>
      </trkpt>
      <trkpt lat="45.16065" lon="-0.62703">
        <ele>29</ele>
        <time>2017-01-12T20:21:00Z</time>
      </trkpt>
      <trkpt lat="45.1605" lon="-0.62529">
        <ele>30</ele>
        <time>2017-01-12T20:20:40Z</time>
      </trkpt>
      <trkpt lat="45.1603" lon="-0.62441">
        <ele>30</ele>
        <time>2017-01-12T20:20:20Z</time>
      </trkpt>
      <trkpt lat="45.1603" lon="-0.62323">
        <ele>29</ele>
        <time>2017-01-12T20:20:00Z</time>
      </trkpt>
      <trkpt lat="45.16056" lon="-0.6222">
        <ele>29</ele>
        <time>2017-01-12T20:19:40Z</time>
      </trkpt>
      <trkpt lat="45.16093" lon="-0.62102">
        <ele>27</ele>
        <time>2017-01-12T20:19:20Z</time>
      </trkpt>
      <trkpt lat="45.16152" lon="-0.61978">
        <ele>24</ele>
        <time>2017-01-12T20:19:00Z</time>
      </trkpt>
      <trkpt lat="45.16166" lon="-0.61918">
        <ele>24</ele>
        <time>2017-01-12T20:18:40Z</time>
      </trkpt>
      <trkpt lat="45.16166" lon="-0.61707">
        <ele>28</ele>
        <time>2017-01-12T20:18:20Z</time>
      </trkpt>
      <trkpt lat="45.1619" lon="-0.61559">
        <ele>32</ele>
        <time>2017-01-12T20:18:00Z</time>
      </trkpt>
      <trkpt lat="45.16195" lon="-0.61353">
        <ele>30</ele>
        <time>2017-01-12T20:17:40Z</time>
      </trkpt>
      <trkpt lat="45.16216" lon="-0.61255">
        <ele>31</ele>
        <time>2017-01-12T20:17:20Z</time>
      </trkpt>
      <trkpt lat="45.16252" lon="-0.61089">
        <ele>31</ele>
        <time>2017-01-12T20:17:00Z</time>
      </trkpt>
      <trkpt lat="45.16284" lon="-0.61004">
        <ele>29</ele>
        <time>2017-01-12T20:16:40Z</time>
      </trkpt>
      <trkpt lat="45.16296" lon="-0.60939">
        <ele>29</ele>
        <time>2017-01-12T20:16:20Z</time>
      </trkpt>
      <trkpt lat="45.16284" lon="-0.60813">
        <ele>31</ele>
        <time>2017-01-12T20:16:00Z</time>
      </trkpt>
      <trkpt lat="45.16289" lon="-0.60716">
        <ele>31</ele>
        <time>2017-01-12T20:15:40Z</time>
      </trkpt>
      <trkpt lat="45.16287" lon="-0.60619">
        <ele>31</ele>
        <time>2017-01-12T20:15:20Z</time>
      </trkpt>
      <trkpt lat="45.16311" lon="-0.60486">
        <ele>30</ele>
        <time>2017-01-12T20:15:00Z</time>
      </trkpt>
      <trkpt lat="45.16349" lon="-0.60456">
        <ele>29</ele>
        <time>2017-01-12T20:14:40Z</time>
      </trkpt>
      <trkpt lat="45.16381" lon="-0.60416">
        <ele>28</ele>
        <time>2017-01-12T20:14:20Z</time>
      </trkpt>
      <trkpt lat="45.16419" lon="-0.60403">
        <ele>27</ele>
        <time>2017-01-12T20:14:00Z</time>
      </trkpt>
      <trkpt lat="45.16441" lon="-0.60323">
        <ele>26</ele>
        <time>2017-01-12T20:13:40Z</time>
      </trkpt>
      <trkpt lat="45.1647" lon="-0.60263">
        <ele>26</ele>
        <time>2017-01-12T20:13:20Z</time>
      </trkpt>
      <trkpt lat="45.16482" lon="-0.60188">
        <ele>24</ele>
        <time>2017-01-12T20:13:00Z</time>
      </trkpt>
      <trkpt lat="45.1651" lon="-0.60109">
        <ele>22</ele>
        <time>2017-01-12T20:12:40Z</time>
      </trkpt>
      <trkpt lat="45.16523" lon="-0.60014">
        <ele>21</ele>
        <time>2017-01-12T20:12:20Z</time>
      </trkpt>
      <trkpt lat="45.16673" lon="-0.60042">
        <ele>19</ele>
        <time>2017-01-12T20:12:00Z</time>
      </trkpt>
      <trkpt lat="45.16753" lon="-0.60032">
        <ele>20</ele>
        <time>2017-01-12T20:11:40Z</time>
      </trkpt>
      <trkpt lat="45.16756" lon="-0.59961">
        <ele>20</ele>
        <time>2017-01-12T20:11:20Z</time>
      </trkpt>
      <trkpt lat="45.16817" lon="-0.59948">
        <ele>20</ele>
        <time>2017-01-12T20:11:00Z</time>
      </trkpt>
      <trkpt lat="45.16829" lon="-0.59999">
        <ele>20</ele>
        <time>2017-01-12T20:10:40Z</time>
      </trkpt>
      <trkpt lat="45.16947" lon="-0.59989">
        <ele>20</ele>
        <time>2017-01-12T20:10:20Z</time>
      </trkpt>
      <trkpt lat="45.16929" lon="-0.60085">
        <ele>21</ele>
        <time>2017-01-12T20:10:00Z</time>
      </trkpt>
      <trkpt lat="45.16963" lon="-0.60087">
        <ele>21</ele>
        <time>2017-01-12T20:09:40Z</time>
      </trkpt>
      <trkpt lat="45.16985" lon="-0.60072">
        <ele>21</ele>
        <time>2017-01-12T20:09:20Z</time>
      </trkpt>
      <trkpt lat="45.17263" lon="-0.60107">
        <ele>18</ele>
        <time>2017-01-12T20:09:00Z</time>
      </trkpt>
      <trkpt lat="45.17467" lon="-0.59707">
        <ele>19</ele>
        <time>2017-01-12T20:08:40Z</time>
      </trkpt>
      <trkpt lat="45.17537" lon="-0.59553">
        <ele>18</ele>
        <time>2017-01-12T20:08:20Z</time>
      </trkpt>
      <trkpt lat="45.17564" lon="-0.59439">
        <ele>18</ele>
        <time>2017-01-12T20:08:00Z</time>
      </trkpt>
      <trkpt lat="45.17647" lon="-0.59366">
        <ele>16</ele>
        <time>2017-01-12T20:07:40Z</time>
      </trkpt>
      <trkpt lat="45.17697" lon="-0.59315">
        <ele>16</ele>
        <time>2017-01-12T20:07:20Z</time>
      </trkpt>
      <trkpt lat="45.17756" lon="-0.59231">
        <ele>15</ele>
        <time>2017-01-12T20:07:00Z</time>
      </trkpt>
      <trkpt lat="45.17792" lon="-0.59154">
        <ele>13</ele>
        <time>2017-01-12T20:06:40Z</time>
      </trkpt>
      <trkpt lat="45.17836" lon="-0.59083">
        <ele>11</ele>
        <time>2017-01-12T20:06:20Z</time>
      </trkpt>
      <trkpt lat="45.179" lon="-0.58901">
        <ele>15</ele>
        <time>2017-01-12T20:06:00Z</time>
      </trkpt>
      <trkpt lat="45.1795" lon="-0.58929">
        <ele>15</ele>
        <time>2017-01-12T20:05:40Z</time>
      </trkpt>
      <trkpt lat="45.18019" lon="-0.58757">
        <ele>15</ele>
        <time>2017-01-12T20:05:20Z</time>
      </trkpt>
      <trkpt lat="45.18034" lon="-0.5869">
        <ele>15</ele>
        <time>2017-01-12T20:05:00Z</time>
      </trkpt>
      <trkpt lat="45.18027" lon="-0.58587">
        <ele>17</ele>
        <time>2017-01-12T20:04:40Z</time>
      </trkpt>
      <trkpt lat="45.1804" lon="-0.58499">
        <ele>18</ele>
        <time>2017-01-12T20:04:20Z</time>
      </trkpt>
      <trkpt lat="45.1808" lon="-0.58373">
        <ele>18</ele>
        <time>2017-01-12T20:04:00Z</time>
      </trkpt>
      <trkpt lat="45.18122" lon="-0.58285">
        <ele>20</ele>
        <time>2017-01-12T20:03:40Z</time>
      </trkpt>
      <trkpt lat="45.1817" lon="-0.58218">
        <ele>19</ele>
        <time>2017-01-12T20:03:20Z</time>
      </trkpt>
      <trkpt lat="45.18251" lon="-0.58175">
        <ele>19</ele>
        <time>2017-01-12T20:03:00Z</time>
      </trkpt>
      <trkpt lat="45.18301" lon="-0.58143">
        <ele>19</ele>
        <time>2017-01-12T20:02:40Z</time>
      </trkpt>
      <trkpt lat="45.18361" lon="-0.5806">
        <ele>20</ele>
        <time>2017-01-12T20:02:20Z</time>
      </trkpt>
      <trkpt lat="45.18408" lon="-0.58017">
        <ele>21</ele>
        <time>2017-01-12T20:02:00Z</time>
      </trkpt>
      <trkpt lat="45.18517" lon="-0.58002">
        <ele>24</ele>
        <time>2017-01-12T20:01:40Z</time>
      </trkpt>
      <trkpt lat="45.18526" lon="-0.58072">
        <ele>24</ele>
        <time>2017-01-12T20:01:20Z</time>
      </trkpt>
      <trkpt lat="45.18597" lon="-0.58051">
        <ele>24</ele>
        <time>2017-01-12T20:01:00Z</time>
      </trkpt>
      <trkpt lat="45.18606" lon="-0.5803">
        <ele>24</ele>
        <time>2017-01-12T20:00:40Z</time>
      </trkpt>
      <trkpt lat="45.18598" lon="-0.57888">
        <ele>25</ele>
        <time>2017-01-12T20:00:20Z</time>
      </trkpt>
      <trkpt lat="45.18768" lon="-0.57873">
        <ele>25</ele>
        <time>2017-01-12T20:00:00Z</time>
      </trkpt>
      <trkpt lat="45.18824" lon="-0.57911">
        <ele>26</ele>
        <time>2017-01-12T19:59:40Z</time>
      </trkpt>
      <trkpt lat="45.18905" lon="-0.57905">
        <ele>28</ele>
        <time>2017-01-12T19:59:20Z</time>
      </trkpt>
      <trkpt lat="45.18983" lon="-0.57952">
        <ele>28</ele>
        <time>2017-01-12T19:59:00Z</time>
      </trkpt>
      <trkpt lat="45.18954" lon="-0.58062">
        <ele>26</ele>
        <time>2017-01-12T19:58:40Z</time>
      </trkpt>
      <trkpt lat="45.18907" lon="-0.58158">
        <ele>23</ele>
        <time>2017-01-12T19:58:20Z</time>
      </trkpt>
      <trkpt lat="45.18969" lon="-0.58396">
        <ele>20</ele>
        <time>2017-01-12T19:58:00Z</time>
      </trkpt>
      <trkpt lat="45.19046" lon="-0.58506">
        <ele>23</ele>
        <time>2017-01-12T19:57:40Z</time>
      </trkpt>
      <trkpt lat="45.19146" lon="-0.58716">
        <ele>23</ele>
        <time>2017-01-12T19:57:20Z</time>
      </trkpt>
      <trkpt lat="45.19225" lon="-0.58976">
        <ele>24</ele>
        <time>2017-01-12T19:57:00Z</time>
      </trkpt>
      <trkpt lat="45.19256" lon="-0.59141">
        <ele>26</ele>
        <time>2017-01-12T19:56:40Z</time>
      </trkpt>
      <trkpt lat="45.19235" lon="-0.59205">
        <ele>22</ele>
        <time>2017-01-12T19:56:20Z</time>
      </trkpt>
      <trkpt lat="45.19315" lon="-0.59283">
        <ele>21</ele>
        <time>2017-01-12T19:56:00Z</time>
      </trkpt>
      <trkpt lat="45.19395" lon="-0.59379">
        <ele>18</ele>
        <time>2017-01-12T19:55:40Z</time>
      </trkpt>
      <trkpt lat="45.19418" lon="-0.59371">
        <ele>18</ele>
        <time>2017-01-12T19:55:20Z</time>
      </trkpt>
      <trkpt lat="45.19456" lon="-0.59381">
        <ele>18</ele>
        <time>2017-01-12T19:55:00Z</time>
      </trkpt>
      <trkpt lat="45.19503" lon="-0.59371">
        <ele>19</ele>
        <time>2017-01-12T19:54:40Z</time>
      </trkpt>
      <trkpt lat="45.19593" lon="-0.5921">
        <ele>20</ele>
        <time>2017-01-12T19:54:20Z</time>
      </trkpt>
      <trkpt lat="45.19708" lon="-0.59079">
        <ele>18</ele>
        <time>2017-01-12T19:54:00Z</time>
      </trkpt>
      <trkpt lat="45.19875" lon="-0.58926">
        <ele>14</ele>
        <time>2017-01-12T19:53:40Z</time>
      </trkpt>
      <trkpt lat="45.2003" lon="-0.5886">
        <ele>14</ele>
        <time>2017-01-12T19:53:20Z</time>
      </trkpt>
      <trkpt lat="45.20044" lon="-0.5889">
        <ele>13</ele>
        <time>2017-01-12T19:53:00Z</time>
      </trkpt>
      <trkpt lat="45.20079" lon="-0.5886">
        <ele>14</ele>
        <time>2017-01-12T19:52:40Z</time>
      </trkpt>
      <trkpt lat="45.20164" lon="-0.59139">
        <ele>13</ele>
        <time>2017-01-12T19:52:20Z</time>
      </trkpt>
      <trkpt lat="45.2028" lon="-0.58969">
        <ele>13</ele>
        <time>2017-01-12T19:52:00Z</time>
      </trkpt>
      <trkpt lat="45.20368" lon="-0.58871">
        <ele>12</ele>
        <time>2017-01-12T19:51:40Z</time>
      </trkpt>
      <trkpt lat="45.20532" lon="-0.58761">
        <ele>12</ele>
        <time>2017-01-12T19:51:20Z</time>
      </trkpt>
      <trkpt lat="45.2228" lon="-0.57802">
        <ele>6</ele>
        <time>2017-01-12T19:51:00Z</time>
      </trkpt>
      <trkpt lat="45.22355" lon="-0.57753">
        <ele>5</ele>
        <time>2017-01-12T19:50:40Z</time>
      </trkpt>
      <trkpt lat="45.22555" lon="-0.57534">
        <ele>8</ele>
        <time>2017-01-12T19:50:20Z</time>
      </trkpt>
      <trkpt lat="45.22664" lon="-0.57467">
        <ele>9</ele>
        <time>2017-01-12T19:50:00Z</time>
      </trkpt>
      <trkpt lat="45.22745" lon="-0.57446">
        <ele>7</ele>
        <time>2017-01-12T19:49:40Z</time>
      </trkpt>
      <trkpt lat="45.2288" lon="-0.57489">
        <ele>8</ele>
        <time>2017-01-12T19:49:20Z</time>
      </trkpt>
      <trkpt lat="45.23162" lon="-0.57643">
        <ele>6</ele>
        <time>2017-01-12T19:49:00Z</time>
      </trkpt>
      <trkpt lat="45.23238" lon="-0.5766">
        <ele>6</ele>
        <time>2017-01-12T19:48:40Z</time>
      </trkpt>
      <trkpt lat="45.23327" lon="-0.57641">
        <ele>6</ele>
        <time>2017-01-12T19:48:20Z</time>
      </trkpt>
      <trkpt lat="45.23552" lon="-0.57725">
        <ele>6</ele>
        <time>2017-01-12T19:48:00Z</time>
      </trkpt>
      <trkpt lat="45.23661" lon="-0.57738">
        <ele>6</ele>
        <time>2017-01-12T19:47:40Z</time>
      </trkpt>
      <trkpt lat="45.23758" lon="-0.57723">
        <ele>7</ele>
        <time>2017-01-12T19:47:20Z</time>
      </trkpt>
      <trkpt lat="45.23998" lon="-0.57618">
        <ele>6</ele>
        <time>2017-01-12T19:47:00Z</time>
      </trkpt>
      <trkpt lat="45.24122" lon="-0.57607">
        <ele>7</ele>
        <time>2017-01-12T19:46:40Z</time>
      </trkpt>
      <trkpt lat="45.24241" lon="-0.57553">
        <ele>7</ele>
        <time>2017-01-12T19:46:20Z</time>
      </trkpt>
      <trkpt lat="45.24441" lon="-0.57364">
        <ele>7</ele>
        <time>2017-01-12T19:46:00Z</time>
      </trkpt>
      <trkpt lat="45.24498" lon="-0.57287">
        <ele>7</ele>
        <time>2017-01-12T19:45:40Z</time>
      </trkpt>
      <trkpt lat="45.24572" lon="-0.57038">
        <ele>9</ele>
        <time>2017-01-12T19:45:20Z</time>
      </trkpt>
      <trkpt lat="45.24622" lon="-0.56997">
        <ele>9</ele>
        <time>2017-01-12T19:45:00Z</time>
      </trkpt>
      <trkpt lat="45.24673" lon="-0.56933">
        <ele>11</ele>
        <time>2017-01-12T19:44:40Z</time>
      </trkpt>
      <trkpt lat="45.24732" lon="-0.56903">
        <ele>11</ele>
        <time>2017-01-12T19:44:20Z</time>
      </trkpt>
      <trkpt lat="45.24788" lon="-0.56858">
        <ele>10</ele>
        <time>2017-01-12T19:44:00Z</time>
      </trkpt>
      <trkpt lat="45.24832" lon="-0.5695">
        <ele>10</ele>
        <time>2017-01-12T19:43:40Z</time>
      </trkpt>
      <trkpt lat="45.24897" lon="-0.56976">
        <ele>10</ele>
        <time>2017-01-12T19:43:20Z</time>
      </trkpt>
      <trkpt lat="45.2496" lon="-0.57081">
        <ele>8</ele>
        <time>2017-01-12T19:43:00Z</time>
      </trkpt>
      <trkpt lat="45.25003" lon="-0.57188">
        <ele>10</ele>
        <time>2017-01-12T19:42:40Z</time>
      </trkpt>
      <trkpt lat="45.25048" lon="-0.57206">
        <ele>10</ele>
        <time>2017-01-12T19:42:20Z</time>
      </trkpt>
      <trkpt lat="45.25086" lon="-0.57124">
        <ele>11</ele>
        <time>2017-01-12T19:42:00Z</time>
      </trkpt>
      <trkpt lat="45.25105" lon="-0.57017">
        <ele>10</ele>
        <time>2017-01-12T19:41:40Z</time>
      </trkpt>
      <trkpt lat="45.25136" lon="-0.56961">
        <ele>10</ele>
        <time>2017-01-12T19:41:20Z</time>
      </trkpt>
      <trkpt lat="45.25309" lon="-0.56796">
        <ele>10</ele>
        <time>2017-01-12T19:41:00Z</time>
      </trkpt>
      <trkpt lat="45.25334" lon="-0.568">
        <ele>11</ele>
        <time>2017-01-12T19:40:40Z</time>
      </trkpt>
      <trkpt lat="45.25377" lon="-0.56854">
        <ele>13</ele>
        <time>2017-01-12T19:40:20Z</time>
      </trkpt>
      <trkpt lat="45.25463" lon="-0.56755">
        <ele>15</ele>
        <time>2017-01-12T19:40:00Z</time>
      </trkpt>
      <trkpt lat="45.254" lon="-0.5668">
        <ele>9</ele>
        <time>2017-01-12T19:39:40Z</time>
      </trkpt>
      <trkpt lat="45.2534" lon="-0.56592">
        <ele>9</ele>
        <time>2017-01-12T19:39:20Z</time>
      </trkpt>
      <trkpt lat="45.2532" lon="-0.56519">
        <ele>11</ele>
        <time>2017-01-12T19:39:00Z</time>
      </trkpt>
      <trkpt lat="45.25276" lon="-0.56508">
        <ele>11</ele>
        <time>2017-01-12T19:38:40Z</time>
      </trkpt>
      <trkpt lat="45.25302" lon="-0.56416">
        <ele>11</ele>
        <time>2017-01-12T19:38:20Z</time>
      </trkpt>
      <trkpt lat="45.25516" lon="-0.56197">
        <ele>11</ele>
        <time>2017-01-12T19:38:00Z</time>
      </trkpt>
      <trkpt lat="45.25543" lon="-0.56105">
        <ele>12</ele>
        <time>2017-01-12T19:37:40Z</time>
      </trkpt>
      <trkpt lat="45.25621" lon="-0.5606">
        <ele>12</ele>
        <time>2017-01-12T19:37:20Z</time>
      </trkpt>
      <trkpt lat="45.25676" lon="-0.55963">
        <ele>13</ele>
        <time>2017-01-12T19:37:00Z</time>
      </trkpt>
      <trkpt lat="45.25726" lon="-0.55914">
        <ele>13</ele>
        <time>2017-01-12T19:36:40Z</time>
      </trkpt>
      <trkpt lat="45.25762" lon="-0.55864">
        <ele>15</ele>
        <time>2017-01-12T19:36:20Z</time>
      </trkpt>
      <trkpt lat="45.25782" lon="-0.55811">
        <ele>15</ele>
        <time>2017-01-12T19:36:00Z</time>
      </trkpt>
      <trkpt lat="45.25799" lon="-0.55712">
        <ele>15</ele>
        <time>2017-01-12T19:35:40Z</time>
      </trkpt>
      <trkpt lat="45.25817" lon="-0.55605">
        <ele>15</ele>
        <time>2017-01-12T19:35:20Z</time>
      </trkpt>
      <trkpt lat="45.25844" lon="-0.55564">
        <ele>17</ele>
        <time>2017-01-12T19:35:00Z</time>
      </trkpt>
      <trkpt lat="45.26022" lon="-0.55766">
        <ele>13</ele>
        <time>2017-01-12T19:34:40Z</time>
      </trkpt>
      <trkpt lat="45.26202" lon="-0.55858">
        <ele>12</ele>
        <time>2017-01-12T19:34:20Z</time>
      </trkpt>
      <trkpt lat="45.26253" lon="-0.55946">
        <ele>15</ele>
        <time>2017-01-12T19:34:00Z</time>
      </trkpt>
      <trkpt lat="45.26273" lon="-0.55946">
        <ele>15</ele>
        <time>2017-01-12T19:33:40Z</time>
      </trkpt>
      <trkpt lat="45.26306" lon="-0.5598">
        <ele>17</ele>
        <time>2017-01-12T19:33:20Z</time>
      </trkpt>
      <trkpt lat="45.26341" lon="-0.55942">
        <ele>18</ele>
        <time>2017-01-12T19:33:00Z</time>
      </trkpt>
      <trkpt lat="45.26412" lon="-0.55901">
        <ele>19</ele>
        <time>2017-01-12T19:32:40Z</time>
      </trkpt>
      <trkpt lat="45.26486" lon="-0.55886">
        <ele>20</ele>
        <time>2017-01-12T19:32:20Z</time>
      </trkpt>
      <trkpt lat="45.26549" lon="-0.55905">
        <ele>21</ele>
        <time>2017-01-12T19:32:00Z</time>
      </trkpt>
      <trkpt lat="45.26951" lon="-0.56195">
        <ele>24</ele>
        <time>2017-01-12T19:31:40Z</time>
      </trkpt>
      <trkpt lat="45.2698" lon="-0.56105">
        <ele>22</ele>
        <time>2017-01-12T19:31:20Z</time>
      </trkpt>
      <trkpt lat="45.27073" lon="-0.56105">
        <ele>20</ele>
        <time>2017-01-12T19:31:00Z</time>
      </trkpt>
      <trkpt lat="45.27087" lon="-0.56081">
        <ele>19</ele>
        <time>2017-01-12T19:30:40Z</time>
      </trkpt>
      <trkpt lat="45.27141" lon="-0.56064">
        <ele>19</ele>
        <time>2017-01-12T19:30:20Z</time>
      </trkpt>
      <trkpt lat="45.27166" lon="-0.55991">
        <ele>21</ele>
        <time>2017-01-12T19:30:00Z</time>
      </trkpt>
      <trkpt lat="45.27178" lon="-0.55879">
        <ele>24</ele>
        <time>2017-01-12T19:29:40Z</time>
      </trkpt>
      <trkpt lat="45.27249" lon="-0.5589">
        <ele>24</ele>
        <time>2017-01-12T19:29:20Z</time>
      </trkpt>
      <trkpt lat="45.27434" lon="-0.55884">
        <ele>26</ele>
        <time>2017-01-12T19:29:00Z</time>
      </trkpt>
      <trkpt lat="45.27587" lon="-0.55901">
        <ele>31</ele>
        <time>2017-01-12T19:28:40Z</time>
      </trkpt>
      <trkpt lat="45.27699" lon="-0.55871">
        <ele>30</ele>
        <time>2017-01-12T19:28:20Z</time>
      </trkpt>
      <trkpt lat="45.27747" lon="-0.55877">
        <ele>31</ele>
        <time>2017-01-12T19:28:00Z</time>
      </trkpt>
      <trkpt lat="45.27948" lon="-0.56038">
        <ele>29</ele>
        <time>2017-01-12T19:27:40Z</time>
      </trkpt>
      <trkpt lat="45.28148" lon="-0.56173">
        <ele>28</ele>
        <time>2017-01-12T19:27:20Z</time>
      </trkpt>
      <trkpt lat="45.28173" lon="-0.56173">
        <ele>28</ele>
        <time>2017-01-12T19:27:00Z</time>
      </trkpt>
      <trkpt lat="45.28233" lon="-0.56193">
        <ele>28</ele>
        <time>2017-01-12T19:26:40Z</time>
      </trkpt>
      <trkpt lat="45.28342" lon="-0.56214">
        <ele>32</ele>
        <time>2017-01-12T19:26:20Z</time>
      </trkpt>
      <trkpt lat="45.28438" lon="-0.56249">
        <ele>33</ele>
        <time>2017-01-12T19:26:00Z</time>
      </trkpt>
      <trkpt lat="45.28472" lon="-0.56218">
        <ele>33</ele>
        <time>2017-01-12T19:25:40Z</time>
      </trkpt>
      <trkpt lat="45.28506" lon="-0.56233">
        <ele>32</ele>
        <time>2017-01-12T19:25:20Z</time>
      </trkpt>
      <trkpt lat="45.2852" lon="-0.56225">
        <ele>32</ele>
        <time>2017-01-12T19:25:00Z</time>
      </trkpt>
      <trkpt lat="45.28526" lon="-0.56163">
        <ele>34</ele>
        <time>2017-01-12T19:24:40Z</time>
      </trkpt>
      <trkpt lat="45.286" lon="-0.56161">
        <ele>33</ele>
        <time>2017-01-12T19:24:20Z</time>
      </trkpt>
      <trkpt lat="45.28624" lon="-0.56216">
        <ele>32</ele>
        <time>2017-01-12T19:24:00Z</time>
      </trkpt>
      <trkpt lat="45.28734" lon="-0.56244">
        <ele>32</ele>
        <time>2017-01-12T19:23:40Z</time>
      </trkpt>
      <trkpt lat="45.28958" lon="-0.56188">
        <ele>33</ele>
        <time>2017-01-12T19:23:20Z</time>
      </trkpt>
      <trkpt lat="45.28953" lon="-0.56264">
        <ele>30</ele>
        <time>2017-01-12T19:23:00Z</time>
      </trkpt>
      <trkpt lat="45.29047" lon="-0.56613">
        <ele>22</ele>
        <time>2017-01-12T19:22:40Z</time>
      </trkpt>
      <trkpt lat="45.2903" lon="-0.56635">
        <ele>22</ele>
        <time>2017-01-12T19:22:20Z</time>
      </trkpt>
      <trkpt lat="45.29071" lon="-0.56723">
        <ele>23</ele>
        <time>2017-01-12T19:22:00Z</time>
      </trkpt>
      <trkpt lat="45.29089" lon="-0.56875">
        <ele>30</ele>
        <time>2017-01-12T19:21:40Z</time>
      </trkpt>
      <trkpt lat="45.29374" lon="-0.56991">
        <ele>34</ele>
        <time>2017-01-12T19:21:20Z</time>
      </trkpt>
      <trkpt lat="45.29385" lon="-0.56924">
        <ele>33</ele>
        <time>2017-01-12T19:21:00Z</time>
      </trkpt>
      <trkpt lat="45.2958" lon="-0.56969">
        <ele>34</ele>
        <time>2017-01-12T19:20:40Z</time>
      </trkpt>
      <trkpt lat="45.29565" lon="-0.5704">
        <ele>35</ele>
        <time>2017-01-12T19:20:20Z</time>
      </trkpt>
      <trkpt lat="45.2956" lon="-0.57141">
        <ele>36</ele>
        <time>2017-01-12T19:20:00Z</time>
      </trkpt>
      <trkpt lat="45.29574" lon="-0.57287">
        <ele>39</ele>
        <time>2017-01-12T19:19:40Z</time>
      </trkpt>
      <trkpt lat="45.29584" lon="-0.57562">
        <ele>42</ele>
        <time>2017-01-12T19:19:20Z</time>
      </trkpt>
      <trkpt lat="45.29568" lon="-0.57671">
        <ele>43</ele>
        <time>2017-01-12T19:19:00Z</time>
      </trkpt>
      <trkpt lat="45.29557" lon="-0.57839">
        <ele>44</ele>
        <time>2017-01-12T19:18:40Z</time>
      </trkpt>
      <trkpt lat="45.29578" lon="-0.58117">
        <ele>46</ele>
        <time>2017-01-12T19:18:20Z</time>
      </trkpt>
      <trkpt lat="45.29616" lon="-0.58229">
        <ele>47</ele>
        <time>2017-01-12T19:18:00Z</time>
      </trkpt>
      <trkpt lat="45.2969" lon="-0.58491">
        <ele>53</ele>
        <time>2017-01-12T19:17:40Z</time>
      </trkpt>
      <trkpt lat="45.29702" lon="-0.58583">
        <ele>55</ele>
        <time>2017-01-12T19:17:20Z</time>
      </trkpt>
      <trkpt lat="45.29892" lon="-0.58414">
        <ele>55</ele>
        <time>2017-01-12T19:17:00Z</time>
      </trkpt>
      <trkpt lat="45.30176" lon="-0.58319">
        <ele>61</ele>
        <time>2017-01-12T19:16:40Z</time>
      </trkpt>
      <trkpt lat="45.30295" lon="-0.58272">
        <ele>61</ele>
        <time>2017-01-12T19:16:20Z</time>
      </trkpt>
      <trkpt lat="45.30579" lon="-0.58407">
        <ele>46</ele>
        <time>2017-01-12T19:16:00Z</time>
      </trkpt>
      <trkpt lat="45.30733" lon="-0.58534">
        <ele>56</ele>
        <time>2017-01-12T19:15:40Z</time>
      </trkpt>
      <trkpt lat="45.30835" lon="-0.58547">
        <ele>54</ele>
        <time>2017-01-12T19:15:20Z</time>
      </trkpt>
      <trkpt lat="45.31006" lon="-0.58575">
        <ele>47</ele>
        <time>2017-01-12T19:15:00Z</time>
      </trkpt>
      <trkpt lat="45.3113" lon="-0.58536">
        <ele>45</ele>
        <time>2017-01-12T19:14:40Z</time>
      </trkpt>
      <trkpt lat="45.3116" lon="-0.58536">
        <ele>44</ele>
        <time>2017-01-12T19:14:20Z</time>
      </trkpt>
      <trkpt lat="45.31197" lon="-0.58581">
        <ele>45</ele>
        <time>2017-01-12T19:14:00Z</time>
      </trkpt>
      <trkpt lat="45.31271" lon="-0.58639">
        <ele>50</ele>
        <time>2017-01-12T19:13:40Z</time>
      </trkpt>
      <trkpt lat="45.3138" lon="-0.58896">
        <ele>65</ele>
        <time>2017-01-12T19:13:20Z</time>
      </trkpt>
      <trkpt lat="45.31385" lon="-0.58939">
        <ele>67</ele>
        <time>2017-01-12T19:13:00Z</time>
      </trkpt>
      <trkpt lat="45.31474" lon="-0.58922">
        <ele>72</ele>
        <time>2017-01-12T19:12:40Z</time>
      </trkpt>
      <trkpt lat="45.3157" lon="-0.58937">
        <ele>74</ele>
        <time>2017-01-12T19:12:20Z</time>
      </trkpt>
      <trkpt lat="45.31575" lon="-0.59047">
        <ele>76</ele>
        <time>2017-01-12T19:12:00Z</time>
      </trkpt>
      <trkpt lat="45.31573" lon="-0.59158">
        <ele>80</ele>
        <time>2017-01-12T19:11:40Z</time>
      </trkpt>
      <trkpt lat="45.31593" lon="-0.5924">
        <ele>81</ele>
        <time>2017-01-12T19:11:20Z</time>
      </trkpt>
      <trkpt lat="45.31679" lon="-0.59371">
        <ele>84</ele>
        <time>2017-01-12T19:11:00Z</time>
      </trkpt>
      <trkpt lat="45.31839" lon="-0.59469">
        <ele>85</ele>
        <time>2017-01-12T19:10:40Z</time>
      </trkpt>
      <trkpt lat="45.31896" lon="-0.59471">
        <ele>86</ele>
        <time>2017-01-12T19:10:20Z</time>
      </trkpt>
      <trkpt lat="45.3199" lon="-0.59399">
        <ele>83</ele>
        <time>2017-01-12T19:10:00Z</time>
      </trkpt>
      <trkpt lat="45.32027" lon="-0.59399">
        <ele>82</ele>
        <time>2017-01-12T19:09:40Z</time>
      </trkpt>
      <trkpt lat="45.3213" lon="-0.5945">
        <ele>79</ele>
        <time>2017-01-12T19:09:20Z</time>
      </trkpt>
      <trkpt lat="45.32177" lon="-0.59414">
        <ele>77</ele>
        <time>2017-01-12T19:09:00Z</time>
      </trkpt>
      <trkpt lat="45.32257" lon="-0.59323">
        <ele>74</ele>
        <time>2017-01-12T19:08:40Z</time>
      </trkpt>
      <trkpt lat="45.32338" lon="-0.59255">
        <ele>74</ele>
        <time>2017-01-12T19:08:20Z</time>
      </trkpt>
      <trkpt lat="45.32383" lon="-0.59126">
        <ele>76</ele>
        <time>2017-01-12T19:08:00Z</time>
      </trkpt>
      <trkpt lat="45.32396" lon="-0.58976">
        <ele>75</ele>
        <time>2017-01-12T19:07:40Z</time>
      </trkpt>
      <trkpt lat="45.32426" lon="-0.58862">
        <ele>71</ele>
        <time>2017-01-12T19:07:20Z</time>
      </trkpt>
      <trkpt lat="45.3245" lon="-0.58712">
        <ele>69</ele>
        <time>2017-01-12T19:07:00Z</time>
      </trkpt>
      <trkpt lat="45.32492" lon="-0.58583">
        <ele>68</ele>
        <time>2017-01-12T19:06:40Z</time>
      </trkpt>
      <trkpt lat="45.32498" lon="-0.58482">
        <ele>66</ele>
        <time>2017-01-12T19:06:20Z</time>
      </trkpt>
      <trkpt lat="45.32501" lon="-0.58343">
        <ele>62</ele>
        <time>2017-01-12T19:06:00Z</time>
      </trkpt>
      <trkpt lat="45.32477" lon="-0.5822">
        <ele>58</ele>
        <time>2017-01-12T19:05:40Z</time>
      </trkpt>
      <trkpt lat="45.32477" lon="-0.5818">
        <ele>58</ele>
        <time>2017-01-12T19:05:20Z</time>
      </trkpt>
      <trkpt lat="45.32518" lon="-0.58124">
        <ele>55</ele>
        <time>2017-01-12T19:05:00Z</time>
      </trkpt>
      <trkpt lat="45.32537" lon="-0.58055">
        <ele>53</ele>
        <time>2017-01-12T19:04:40Z</time>
      </trkpt>
      <trkpt lat="45.32571" lon="-0.58012">
        <ele>51</ele>
        <time>2017-01-12T19:04:20Z</time>
      </trkpt>
      <trkpt lat="45.32664" lon="-0.57933">
        <ele>49</ele>
        <time>2017-01-12T19:04:00Z</time>
      </trkpt>
      <trkpt lat="45.32678" lon="-0.57875">
        <ele>47</ele>
        <time>2017-01-12T19:03:40Z</time>
      </trkpt>
      <trkpt lat="45.32661" lon="-0.57789">
        <ele>47</ele>
        <time>2017-01-12T19:03:20Z</time>
      </trkpt>
      <trkpt lat="45.3262" lon="-0.57708">
        <ele>45</ele>
        <time>2017-01-12T19:03:00Z</time>
      </trkpt>
      <trkpt lat="45.32688" lon="-0.57667">
        <ele>43</ele>
        <time>2017-01-12T19:02:40Z</time>
      </trkpt>
      <trkpt lat="45.32735" lon="-0.57669">
        <ele>45</ele>
        <time>2017-01-12T19:02:20Z</time>
      </trkpt>
      <trkpt lat="45.32634" lon="-0.57225">
        <ele>40</ele>
        <time>2017-01-12T19:02:00Z</time>
      </trkpt>
      <trkpt lat="45.32584" lon="-0.571">
        <ele>41</ele>
        <time>2017-01-12T19:01:40Z</time>
      </trkpt>
      <trkpt lat="45.32666" lon="-0.57079">
        <ele>41</ele>
        <time>2017-01-12T19:01:20Z</time>
      </trkpt>
      <trkpt lat="45.32669" lon="-0.56903">
        <ele>46</ele>
        <time>2017-01-12T19:01:00Z</time>
      </trkpt>
      <trkpt lat="45.32681" lon="-0.56819">
        <ele>46</ele>
        <time>2017-01-12T19:00:40Z</time>
      </trkpt>
      <trkpt lat="45.32687" lon="-0.56667">
        <ele>48</ele>
        <time>2017-01-12T19:00:20Z</time>
      </trkpt>
      <trkpt lat="45.32752" lon="-0.56506">
        <ele>54</ele>
        <time>2017-01-12T19:00:00Z</time>
      </trkpt>
      <trkpt lat="45.32783" lon="-0.56455">
        <ele>57</ele>
        <time>2017-01-12T18:59:40Z</time>
      </trkpt>
      <trkpt lat="45.32949" lon="-0.56392">
        <ele>53</ele>
        <time>2017-01-12T18:59:20Z</time>
      </trkpt>
      <trkpt lat="45.33079" lon="-0.56364">
        <ele>55</ele>
        <time>2017-01-12T18:59:00Z</time>
      </trkpt>
      <trkpt lat="45.33272" lon="-0.56251">
        <ele>58</ele>
        <time>2017-01-12T18:58:40Z</time>
      </trkpt>
      <trkpt lat="45.33381" lon="-0.56264">
        <ele>55</ele>
        <time>2017-01-12T18:58:20Z</time>
      </trkpt>
      <trkpt lat="45.33452" lon="-0.56233">
        <ele>53</ele>
        <time>2017-01-12T18:58:00Z</time>
      </trkpt>
      <trkpt lat="45.33501" lon="-0.56233">
        <ele>50</ele>
        <time>2017-01-12T18:57:40Z</time>
      </trkpt>
      <trkpt lat="45.33533" lon="-0.56212">
        <ele>50</ele>
        <time>2017-01-12T18:57:20Z</time>
      </trkpt>
      <trkpt lat="45.33581" lon="-0.56068">
        <ele>54</ele>
        <time>2017-01-12T18:57:00Z</time>
      </trkpt>
      <trkpt lat="45.33625" lon="-0.56075">
        <ele>51</ele>
        <time>2017-01-12T18:56:40Z</time>
      </trkpt>
      <trkpt lat="45.33684" lon="-0.56098">
        <ele>48</ele>
        <time>2017-01-12T18:56:20Z</time>
      </trkpt>
      <trkpt lat="45.33752" lon="-0.56203">
        <ele>47</ele>
        <time>2017-01-12T18:56:00Z</time>
      </trkpt>
      <trkpt lat="45.33881" lon="-0.56225">
        <ele>54</ele>
        <time>2017-01-12T18:55:40Z</time>
      </trkpt>
      <trkpt lat="45.3399" lon="-0.56281">
        <ele>61</ele>
        <time>2017-01-12T18:55:20Z</time>
      </trkpt>
      <trkpt lat="45.34096" lon="-0.56315">
        <ele>73</ele>
        <time>2017-01-12T18:55:00Z</time>
      </trkpt>
      <trkpt lat="45.34159" lon="-0.56349">
        <ele>76</ele>
        <time>2017-01-12T18:54:40Z</time>
      </trkpt>
      <trkpt lat="45.34203" lon="-0.56362">
        <ele>78</ele>
        <time>2017-01-12T18:54:20Z</time>
      </trkpt>
      <trkpt lat="45.34267" lon="-0.56313">
        <ele>79</ele>
        <time>2017-01-12T18:54:00Z</time>
      </trkpt>
      <trkpt lat="45.34314" lon="-0.563">
        <ele>79</ele>
        <time>2017-01-12T18:53:40Z</time>
      </trkpt>
      <trkpt lat="45.34809" lon="-0.56352">
        <ele>84</ele>
        <time>2017-01-12T18:53:20Z</time>
      </trkpt>
      <trkpt lat="45.34994" lon="-0.5639">
        <ele>91</ele>
        <time>2017-01-12T18:53:00Z</time>
      </trkpt>
      <trkpt lat="45.35061" lon="-0.56382">
        <ele>93</ele>
        <time>2017-01-12T18:52:40Z</time>
      </trkpt>
      <trkpt lat="45.35227" lon="-0.56461">
        <ele>89</ele>
        <time>2017-01-12T18:52:20Z</time>
      </trkpt>
      <trkpt lat="45.35438" lon="-0.56515">
        <ele>88</ele>
        <time>2017-01-12T18:52:00Z</time>
      </trkpt>
      <trkpt lat="45.35641" lon="-0.56579">
        <ele>88</ele>
        <time>2017-01-12T18:51:40Z</time>
      </trkpt>
      <trkpt lat="45.35733" lon="-0.56573">
        <ele>83</ele>
        <time>2017-01-12T18:51:20Z</time>
      </trkpt>
      <trkpt lat="45.35861" lon="-0.56645">
        <ele>70</ele>
        <time>2017-01-12T18:51:00Z</time>
      </trkpt>
      <trkpt lat="45.35976" lon="-0.56676">
        <ele>59</ele>
        <time>2017-01-12T18:50:40Z</time>
      </trkpt>
      <trkpt lat="45.36146" lon="-0.5677">
        <ele>52</ele>
        <time>2017-01-12T18:50:20Z</time>
      </trkpt>
      <trkpt lat="45.36175" lon="-0.56869">
        <ele>53</ele>
        <time>2017-01-12T18:50:00Z</time>
      </trkpt>
      <trkpt lat="45.36263" lon="-0.56897">
        <ele>48</ele>
        <time>2017-01-12T18:49:40Z</time>
      </trkpt>
      <trkpt lat="45.36263" lon="-0.56897">
        <ele>48</ele>
        <time>2017-01-12T18:49:20Z</time>
      </trkpt>
      <trkpt lat="45.36347" lon="-0.56866">
        <ele>45</ele>
        <time>2017-01-12T18:49:00Z</time>
      </trkpt>
      <trkpt lat="45.36709" lon="-0.57016">
        <ele>42</ele>
        <time>2017-01-12T18:48:40Z</time>
      </trkpt>
      <trkpt lat="45.36765" lon="-0.56949">
        <ele>44</ele>
        <time>2017-01-12T18:48:20Z</time>
      </trkpt>
      <trkpt lat="45.36802" lon="-0.56836">
        <ele>43</ele>
        <time>2017-01-12T18:48:00Z</time>
      </trkpt>
      <trkpt lat="45.369" lon="-0.56734">
        <ele>45</ele>
        <time>2017-01-12T18:47:40Z</time>
      </trkpt>
      <trkpt lat="45.36947" lon="-0.56728">
        <ele>48</ele>
        <time>2017-01-12T18:47:20Z</time>
      </trkpt>
      <trkpt lat="45.36984" lon="-0.56716">
        <ele>50</ele>
        <time>2017-01-12T18:47:00Z</time>
      </trkpt>
      <trkpt lat="45.37077" lon="-0.56602">
        <ele>62</ele>
        <time>2017-01-12T18:46:40Z</time>
      </trkpt>
      <trkpt lat="45.37104" lon="-0.56641">
        <ele>71</ele>
        <time>2017-01-12T18:46:20Z</time>
      </trkpt>
      <trkpt lat="45.37154" lon="-0.56669">
        <ele>76</ele>
        <time>2017-01-12T18:46:00Z</time>
      </trkpt>
      <trkpt lat="45.37236" lon="-0.56674">
        <ele>80</ele>
        <time>2017-01-12T18:45:40Z</time>
      </trkpt>
      <trkpt lat="45.37318" lon="-0.56667">
        <ele>85</ele>
        <time>2017-01-12T18:45:20Z</time>
      </trkpt>
      <trkpt lat="45.37361" lon="-0.56658">
        <ele>87</ele>
        <time>2017-01-12T18:45:00Z</time>
      </trkpt>
      <trkpt lat="45.37297" lon="-0.56726">
        <ele>80</ele>
        <time>2017-01-12T18:44:40Z</time>
      </trkpt>
      <trkpt lat="45.37288" lon="-0.56777">
        <ele>75</ele>
        <time>2017-01-12T18:44:20Z</time>
      </trkpt>
      <trkpt lat="45.37309" lon="-0.56817">
        <ele>74</ele>
        <time>2017-01-12T18:44:00Z</time>
      </trkpt>
      <trkpt lat="45.374" lon="-0.56831">
        <ele>74</ele>
        <time>2017-01-12T18:43:40Z</time>
      </trkpt>
      <trkpt lat="45.37426" lon="-0.56845">
        <ele>72</ele>
        <time>2017-01-12T18:43:20Z</time>
      </trkpt>
      <trkpt lat="45.37469" lon="-0.56847">
        <ele>75</ele>
        <time>2017-01-12T18:43:00Z</time>
      </trkpt>
      <trkpt lat="45.3751" lon="-0.56862">
        <ele>75</ele>
        <time>2017-01-12T18:42:40Z</time>
      </trkpt>
      <trkpt lat="45.37724" lon="-0.5679">
        <ele>66</ele>
        <time>2017-01-12T18:42:20Z</time>
      </trkpt>
      <trkpt lat="45.37777" lon="-0.5693">
        <ele>60</ele>
        <time>2017-01-12T18:42:00Z</time>
      </trkpt>
      <trkpt lat="45.3826" lon="-0.56784">
        <ele>78</ele>
        <time>2017-01-12T18:41:40Z</time>
      </trkpt>
      <trkpt lat="45.3823" lon="-0.5666">
        <ele>79</ele>
        <time>2017-01-12T18:41:20Z</time>
      </trkpt>
      <trkpt lat="45.38248" lon="-0.56655">
        <ele>79</ele>
        <time>2017-01-12T18:41:00Z</time>
      </trkpt>
      <trkpt lat="45.38282" lon="-0.56762">
        <ele>78</ele>
        <time>2017-01-12T18:40:40Z</time>
      </trkpt>
      <trkpt lat="45.38581" lon="-0.5667">
        <ele>84</ele>
        <time>2017-01-12T18:40:20Z</time>
      </trkpt>
      <trkpt lat="45.38588" lon="-0.56643">
        <ele>84</ele>
        <time>2017-01-12T18:40:00Z</time>
      </trkpt>
      <trkpt lat="45.38807" lon="-0.56538">
        <ele>90</ele>
        <time>2017-01-12T18:39:40Z</time>
      </trkpt>
      <trkpt lat="45.38874" lon="-0.56518">
        <ele>90</ele>
        <time>2017-01-12T18:39:20Z</time>
      </trkpt>
      <trkpt lat="45.39022" lon="-0.56444">
        <ele>90</ele>
        <time>2017-01-12T18:39:00Z</time>
      </trkpt>
      <trkpt lat="45.39162" lon="-0.56347">
        <ele>91</ele>
        <time>2017-01-12T18:38:40Z</time>
      </trkpt>
      <trkpt lat="45.39181" lon="-0.56306">
        <ele>91</ele>
        <time>2017-01-12T18:38:20Z</time>
      </trkpt>
      <trkpt lat="45.39273" lon="-0.56196">
        <ele>89</ele>
        <time>2017-01-12T18:38:00Z</time>
      </trkpt>
      <trkpt lat="45.39314" lon="-0.56181">
        <ele>89</ele>
        <time>2017-01-12T18:37:40Z</time>
      </trkpt>
      <trkpt lat="45.39279" lon="-0.55959">
        <ele>95</ele>
        <time>2017-01-12T18:37:20Z</time>
      </trkpt>
      <trkpt lat="45.39315" lon="-0.55879">
        <ele>91</ele>
        <time>2017-01-12T18:37:00Z</time>
      </trkpt>
      <trkpt lat="45.39415" lon="-0.55758">
        <ele>87</ele>
        <time>2017-01-12T18:36:40Z</time>
      </trkpt>
      <trkpt lat="45.39512" lon="-0.55677">
        <ele>90</ele>
        <time>2017-01-12T18:36:20Z</time>
      </trkpt>
      <trkpt lat="45.39619" lon="-0.55487">
        <ele>86</ele>
        <time>2017-01-12T18:36:00Z</time>
      </trkpt>
      <trkpt lat="45.39646" lon="-0.55452">
        <ele>85</ele>
        <time>2017-01-12T18:35:40Z</time>
      </trkpt>
      <trkpt lat="45.39709" lon="-0.55417">
        <ele>77</ele>
        <time>2017-01-12T18:35:20Z</time>
      </trkpt>
      <trkpt lat="45.39717" lon="-0.55369">
        <ele>76</ele>
        <time>2017-01-12T18:35:00Z</time>
      </trkpt>
      <trkpt lat="45.39761" lon="-0.55278">
        <ele>69</ele>
        <time>2017-01-12T18:34:40Z</time>
      </trkpt>
      <trkpt lat="45.39885" lon="-0.55152">
        <ele>65</ele>
        <time>2017-01-12T18:34:20Z</time>
      </trkpt>
      <trkpt lat="45.39896" lon="-0.55158">
        <ele>65</ele>
        <time>2017-01-12T18:34:00Z</time>
      </trkpt>
      <trkpt lat="45.39907" lon="-0.55224">
        <ele>64</ele>
        <time>2017-01-12T18:33:40Z</time>
      </trkpt>
      <trkpt lat="45.39894" lon="-0.55272">
        <ele>64</ele>
        <time>2017-01-12T18:33:20Z</time>
      </trkpt>
      <trkpt lat="45.39895" lon="-0.55319">
        <ele>65</ele>
        <time>2017-01-12T18:33:00Z</time>
      </trkpt>
      <trkpt lat="45.39928" lon="-0.55388">
        <ele>63</ele>
        <time>2017-01-12T18:32:40Z</time>
      </trkpt>
      <trkpt lat="45.40034" lon="-0.55513">
        <ele>59</ele>
        <time>2017-01-12T18:32:20Z</time>
      </trkpt>
      <trkpt lat="45.40086" lon="-0.55541">
        <ele>58</ele>
        <time>2017-01-12T18:32:00Z</time>
      </trkpt>
      <trkpt lat="45.40084" lon="-0.55562">
        <ele>58</ele>
        <time>2017-01-12T18:31:40Z</time>
      </trkpt>
      <trkpt lat="45.40137" lon="-0.55608">
        <ele>57</ele>
        <time>2017-01-12T18:31:20Z</time>
      </trkpt>
      <trkpt lat="45.40188" lon="-0.55606">
        <ele>56</ele>
        <time>2017-01-12T18:31:00Z</time>
      </trkpt>
      <trkpt lat="45.40309" lon="-0.55453">
        <ele>61</ele>
        <time>2017-01-12T18:30:40Z</time>
      </trkpt>
      <trkpt lat="45.40363" lon="-0.55411">
        <ele>63</ele>
        <time>2017-01-12T18:30:20Z</time>
      </trkpt>
      <trkpt lat="45.40489" lon="-0.55412">
        <ele>62</ele>
        <time>2017-01-12T18:30:00Z</time>
      </trkpt>
      <trkpt lat="45.40609" lon="-0.55486">
        <ele>61</ele>
        <time>2017-01-12T18:29:40Z</time>
      </trkpt>
      <trkpt lat="45.40681" lon="-0.55587">
        <ele>60</ele>
        <time>2017-01-12T18:29:20Z</time>
      </trkpt>
      <trkpt lat="45.40747" lon="-0.55695">
        <ele>60</ele>
        <time>2017-01-12T18:29:00Z</time>
      </trkpt>
      <trkpt lat="45.40895" lon="-0.55763">
        <ele>58</ele>
        <time>2017-01-12T18:28:40Z</time>
      </trkpt>
      <trkpt lat="45.40925" lon="-0.55706">
        <ele>58</ele>
        <time>2017-01-12T18:28:20Z</time>
      </trkpt>
      <trkpt lat="45.41077" lon="-0.55792">
        <ele>55</ele>
        <time>2017-01-12T18:28:00Z</time>
      </trkpt>
      <trkpt lat="45.41212" lon="-0.55847">
        <ele>53</ele>
        <time>2017-01-12T18:27:40Z</time>
      </trkpt>
      <trkpt lat="45.4124" lon="-0.5584">
        <ele>53</ele>
        <time>2017-01-12T18:27:20Z</time>
      </trkpt>
      <trkpt lat="45.41268" lon="-0.55767">
        <ele>53</ele>
        <time>2017-01-12T18:27:00Z</time>
      </trkpt>
      <trkpt lat="45.41327" lon="-0.55776">
        <ele>53</ele>
        <time>2017-01-12T18:26:40Z</time>
      </trkpt>
      <trkpt lat="45.41395" lon="-0.55803">
        <ele>53</ele>
        <time>2017-01-12T18:26:20Z</time>
      </trkpt>
      <trkpt lat="45.41379" lon="-0.55905">
        <ele>52</ele>
        <time>2017-01-12T18:26:00Z</time>
      </trkpt>
      <trkpt lat="45.41703" lon="-0.56012">
        <ele>52</ele>
        <time>2017-01-12T18:25:40Z</time>
      </trkpt>
      <trkpt lat="45.4171" lon="-0.55619">
        <ele>48</ele>
        <time>2017-01-12T18:25:20Z</time>
      </trkpt>
      <trkpt lat="45.4181" lon="-0.55679">
        <ele>48</ele>
        <time>2017-01-12T18:25:00Z</time>
      </trkpt>
      <trkpt lat="45.41861" lon="-0.55767">
        <ele>50</ele>
        <time>2017-01-12T18:24:40Z</time>
      </trkpt>
      <trkpt lat="45.41944" lon="-0.55879">
        <ele>52</ele>
        <time>2017-01-12T18:24:20Z</time>
      </trkpt>
      <trkpt lat="45.42027" lon="-0.55967">
        <ele>54</ele>
        <time>2017-01-12T18:24:00Z</time>
      </trkpt>
      <trkpt lat="45.4204" lon="-0.55859">
        <ele>53</ele>
        <time>2017-01-12T18:23:40Z</time>
      </trkpt>
      <trkpt lat="45.42091" lon="-0.55705">
        <ele>50</ele>
        <time>2017-01-12T18:23:20Z</time>
      </trkpt>
      <trkpt lat="45.4236" lon="-0.55314">
        <ele>47</ele>
        <time>2017-01-12T18:23:00Z</time>
      </trkpt>
      <trkpt lat="45.42438" lon="-0.55382">
        <ele>52</ele>
        <time>2017-01-12T18:22:40Z</time>
      </trkpt>
      <trkpt lat="45.42448" lon="-0.55367">
        <ele>52</ele>
        <time>2017-01-12T18:22:20Z</time>
      </trkpt>
      <trkpt lat="45.42472" lon="-0.55379">
        <ele>52</ele>
        <time>2017-01-12T18:22:00Z</time>
      </trkpt>
      <trkpt lat="45.42512" lon="-0.55367">
        <ele>53</ele>
        <time>2017-01-12T18:21:40Z</time>
      </trkpt>
      <trkpt lat="45.42722" lon="-0.55236">
        <ele>49</ele>
        <time>2017-01-12T18:21:20Z</time>
      </trkpt>
      <trkpt lat="45.42981" lon="-0.5513">
        <ele>53</ele>
        <time>2017-01-12T18:21:00Z</time>
      </trkpt>
      <trkpt lat="45.42982" lon="-0.55296">
        <ele>52</ele>
        <time>2017-01-12T18:20:40Z</time>
      </trkpt>
      <trkpt lat="45.43195" lon="-0.55296">
        <ele>49</ele>
        <time>2017-01-12T18:20:20Z</time>
      </trkpt>
      <trkpt lat="45.43239" lon="-0.5532">
        <ele>48</ele>
        <time>2017-01-12T18:20:00Z</time>
      </trkpt>
      <trkpt lat="45.43372" lon="-0.55591">
        <ele>45</ele>
        <time>2017-01-12T18:19:40Z</time>
      </trkpt>
      <trkpt lat="45.43982" lon="-0.54947">
        <ele>41</ele>
        <time>2017-01-12T18:19:20Z</time>
      </trkpt>
      <trkpt lat="45.44265" lon="-0.55519">
        <ele>37</ele>
        <time>2017-01-12T18:19:00Z</time>
      </trkpt>
      <trkpt lat="45.44314" lon="-0.55871">
        <ele>36</ele>
        <time>2017-01-12T18:18:40Z</time>
      </trkpt>
      <trkpt lat="45.44302" lon="-0.56018">
        <ele>37</ele>
        <time>2017-01-12T18:18:20Z</time>
      </trkpt>
      <trkpt lat="45.44349" lon="-0.5636">
        <ele>48</ele>
        <time>2017-01-12T18:18:00Z</time>
      </trkpt>
      <trkpt lat="45.44385" lon="-0.56505">
        <ele>50</ele>
        <time>2017-01-12T18:17:40Z</time>
      </trkpt>
      <trkpt lat="45.44422" lon="-0.56711">
        <ele>50</ele>
        <time>2017-01-12T18:17:20Z</time>
      </trkpt>
      <trkpt lat="45.44473" lon="-0.5687">
        <ele>50</ele>
        <time>2017-01-12T18:17:00Z</time>
      </trkpt>
      <trkpt lat="45.44593" lon="-0.56981">
        <ele>49</ele>
        <time>2017-01-12T18:16:40Z</time>
      </trkpt>
      <trkpt lat="45.44743" lon="-0.57141">
        <ele>45</ele>
        <time>2017-01-12T18:16:20Z</time>
      </trkpt>
      <trkpt lat="45.44859" lon="-0.5728">
        <ele>52</ele>
        <time>2017-01-12T18:16:00Z</time>
      </trkpt>
      <trkpt lat="45.44949" lon="-0.57405">
        <ele>58</ele>
        <time>2017-01-12T18:15:40Z</time>
      </trkpt>
      <trkpt lat="45.45051" lon="-0.5759">
        <ele>61</ele>
        <time>2017-01-12T18:15:20Z</time>
      </trkpt>
      <trkpt lat="45.45225" lon="-0.5781">
        <ele>60</ele>
        <time>2017-01-12T18:15:00Z</time>
      </trkpt>
      <trkpt lat="45.45315" lon="-0.57941">
        <ele>59</ele>
        <time>2017-01-12T18:14:40Z</time>
      </trkpt>
      <trkpt lat="45.45424" lon="-0.58048">
        <ele>58</ele>
        <time>2017-01-12T18:14:20Z</time>
      </trkpt>
      <trkpt lat="45.45505" lon="-0.58143">
        <ele>54</ele>
        <time>2017-01-12T18:14:00Z</time>
      </trkpt>
      <trkpt lat="45.45639" lon="-0.58271">
        <ele>51</ele>
        <time>2017-01-12T18:13:40Z</time>
      </trkpt>
      <trkpt lat="45.45703" lon="-0.58207">
        <ele>50</ele>
        <time>2017-01-12T18:13:20Z</time>
      </trkpt>
      <trkpt lat="45.45711" lon="-0.58179">
        <ele>50</ele>
        <time>2017-01-12T18:13:00Z</time>
      </trkpt>
      <trkpt lat="45.45828" lon="-0.58029">
        <ele>50</ele>
        <time>2017-01-12T18:12:40Z</time>
      </trkpt>
      <trkpt lat="45.459" lon="-0.58003">
        <ele>50</ele>
        <time>2017-01-12T18:12:20Z</time>
      </trkpt>
      <trkpt lat="45.45931" lon="-0.57913">
        <ele>50</ele>
        <time>2017-01-12T18:12:00Z</time>
      </trkpt>
      <trkpt lat="45.46065" lon="-0.5782">
        <ele>44</ele>
        <time>2017-01-12T18:11:40Z</time>
      </trkpt>
      <trkpt lat="45.46167" lon="-0.5783">
        <ele>39</ele>
        <time>2017-01-12T18:11:20Z</time>
      </trkpt>
      <trkpt lat="45.46229" lon="-0.58001">
        <ele>39</ele>
        <time>2017-01-12T18:11:00Z</time>
      </trkpt>
      <trkpt lat="45.46314" lon="-0.58037">
        <ele>39</ele>
        <time>2017-01-12T18:10:40Z</time>
      </trkpt>
      <trkpt lat="45.46367" lon="-0.58106">
        <ele>40</ele>
        <time>2017-01-12T18:10:20Z</time>
      </trkpt>
      <trkpt lat="45.46485" lon="-0.58154">
        <ele>37</ele>
        <time>2017-01-12T18:10:00Z</time>
      </trkpt>
      <trkpt lat="45.46581" lon="-0.58087">
        <ele>35</ele>
        <time>2017-01-12T18:09:40Z</time>
      </trkpt>
      <trkpt lat="45.46621" lon="-0.58169">
        <ele>37</ele>
        <time>2017-01-12T18:09:20Z</time>
      </trkpt>
      <trkpt lat="45.46645" lon="-0.58124">
        <ele>36</ele>
        <time>2017-01-12T18:09:00Z</time>
      </trkpt>
      <trkpt lat="45.46728" lon="-0.58028">
        <ele>35</ele>
        <time>2017-01-12T18:08:40Z</time>
      </trkpt>
      <trkpt lat="45.46735" lon="-0.5801">
        <ele>35</ele>
        <time>2017-01-12T18:08:20Z</time>
      </trkpt>
      <trkpt lat="45.46779" lon="-0.58052">
        <ele>35</ele>
        <time>2017-01-12T18:08:00Z</time>
      </trkpt>
      <trkpt lat="45.46837" lon="-0.58132">
        <ele>35</ele>
        <time>2017-01-12T18:07:40Z</time>
      </trkpt>
      <trkpt lat="45.46901" lon="-0.58191">
        <ele>35</ele>
        <time>2017-01-12T18:07:20Z</time>
      </trkpt>
      <trkpt lat="45.47037" lon="-0.58379">
        <ele>34</ele>
        <time>2017-01-12T18:07:00Z</time>
      </trkpt>
      <trkpt lat="45.47042" lon="-0.58446">
        <ele>35</ele>
        <time>2017-01-12T18:06:40Z</time>
      </trkpt>
      <trkpt lat="45.47289" lon="-0.58332">
        <ele>33</ele>
        <time>2017-01-12T18:06:20Z</time>
      </trkpt>
      <trkpt lat="45.4732" lon="-0.58282">
        <ele>32</ele>
        <time>2017-01-12T18:06:00Z</time>
      </trkpt>
      <trkpt lat="45.47317" lon="-0.58212">
        <ele>32</ele>
        <time>2017-01-12T18:05:40Z</time>
      </trkpt>
      <trkpt lat="45.47396" lon="-0.58061">
        <ele>33</ele>
        <time>2017-01-12T18:05:20Z</time>
      </trkpt>
      <trkpt lat="45.47366" lon="-0.58003">
        <ele>32</ele>
        <time>2017-01-12T18:05:00Z</time>
      </trkpt>
      <trkpt lat="45.47505" lon="-0.57804">
        <ele>32</ele>
        <time>2017-01-12T18:04:40Z</time>
      </trkpt>
      <trkpt lat="45.47585" lon="-0.57712">
        <ele>32</ele>
        <time>2017-01-12T18:04:20Z</time>
      </trkpt>
      <trkpt lat="45.47613" lon="-0.57667">
        <ele>32</ele>
        <time>2017-01-12T18:04:00Z</time>
      </trkpt>
      <trkpt lat="45.47628" lon="-0.57549">
        <ele>32</ele>
        <time>2017-01-12T18:03:40Z</time>
      </trkpt>
      <trkpt lat="45.47821" lon="-0.57328">
        <ele>33</ele>
        <time>2017-01-12T18:03:20Z</time>
      </trkpt>
      <trkpt lat="45.47829" lon="-0.57296">
        <ele>33</ele>
        <time>2017-01-12T18:03:00Z</time>
      </trkpt>
      <trkpt lat="45.48083" lon="-0.57359">
        <ele>36</ele>
        <time>2017-01-12T18:02:40Z</time>
      </trkpt>
      <trkpt lat="45.48136" lon="-0.57357">
        <ele>35</ele>
        <time>2017-01-12T18:02:20Z</time>
      </trkpt>
      <trkpt lat="45.48204" lon="-0.57301">
        <ele>34</ele>
        <time>2017-01-12T18:02:00Z</time>
      </trkpt>
      <trkpt lat="45.48225" lon="-0.5724">
        <ele>35</ele>
        <time>2017-01-12T18:01:40Z</time>
      </trkpt>
      <trkpt lat="45.48302" lon="-0.57134">
        <ele>37</ele>
        <time>2017-01-12T18:01:20Z</time>
      </trkpt>
      <trkpt lat="45.48278" lon="-0.57091">
        <ele>37</ele>
        <time>2017-01-12T18:01:00Z</time>
      </trkpt>
      <trkpt lat="45.4833" lon="-0.5702">
        <ele>36</ele>
        <time>2017-01-12T18:00:40Z</time>
      </trkpt>
      <trkpt lat="45.48453" lon="-0.57002">
        <ele>38</ele>
        <time>2017-01-12T18:00:20Z</time>
      </trkpt>
      <trkpt lat="45.48515" lon="-0.57003">
        <ele>37</ele>
        <time>2017-01-12T18:00:00Z</time>
      </trkpt>
      <trkpt lat="45.48607" lon="-0.56974">
        <ele>34</ele>
        <time>2017-01-12T17:59:40Z</time>
      </trkpt>
      <trkpt lat="45.48652" lon="-0.56996">
        <ele>33</ele>
        <time>2017-01-12T17:59:20Z</time>
      </trkpt>
      <trkpt lat="45.48726" lon="-0.57102">
        <ele>34</ele>
        <time>2017-01-12T17:59:00Z</time>
      </trkpt>
      <trkpt lat="45.48766" lon="-0.57149">
        <ele>34</ele>
        <time>2017-01-12T17:58:40Z</time>
      </trkpt>
      <trkpt lat="45.48855" lon="-0.572">
        <ele>34</ele>
        <time>2017-01-12T17:58:20Z</time>
      </trkpt>
      <trkpt lat="45.48916" lon="-0.57258">
        <ele>35</ele>
        <time>2017-01-12T17:58:00Z</time>
      </trkpt>
      <trkpt lat="45.48972" lon="-0.57281">
        <ele>36</ele>
        <time>2017-01-12T17:57:40Z</time>
      </trkpt>
      <trkpt lat="45.49066" lon="-0.57293">
        <ele>37</ele>
        <time>2017-01-12T17:57:20Z</time>
      </trkpt>
      <trkpt lat="45.4906" lon="-0.57136">
        <ele>36</ele>
        <time>2017-01-12T17:57:00Z</time>
      </trkpt>
      <trkpt lat="45.49132" lon="-0.57121">
        <ele>38</ele>
        <time>2017-01-12T17:56:40Z</time>
      </trkpt>
      <trkpt lat="45.49233" lon="-0.57123">
        <ele>38</ele>
        <time>2017-01-12T17:56:20Z</time>
      </trkpt>
      <trkpt lat="45.49348" lon="-0.57082">
        <ele>40</ele>
        <time>2017-01-12T17:56:00Z</time>
      </trkpt>
      <trkpt lat="45.49474" lon="-0.5711">
        <ele>33</ele>
        <time>2017-01-12T17:55:40Z</time>
      </trkpt>
      <trkpt lat="45.49539" lon="-0.57097">
        <ele>31</ele>
        <time>2017-01-12T17:55:20Z</time>
      </trkpt>
      <trkpt lat="45.4957" lon="-0.57192">
        <ele>31</ele>
        <time>2017-01-12T17:55:00Z</time>
      </trkpt>
      <trkpt lat="45.49616" lon="-0.57256">
        <ele>34</ele>
        <time>2017-01-12T17:54:40Z</time>
      </trkpt>
      <trkpt lat="45.49638" lon="-0.5731">
        <ele>34</ele>
        <time>2017-01-12T17:54:20Z</time>
      </trkpt>
      <trkpt lat="45.4963" lon="-0.57398">
        <ele>35</ele>
        <time>2017-01-12T17:54:00Z</time>
      </trkpt>
      <trkpt lat="45.49811" lon="-0.57397">
        <ele>32</ele>
        <time>2017-01-12T17:53:40Z</time>
      </trkpt>
      <trkpt lat="45.49924" lon="-0.57384">
        <ele>30</ele>
        <time>2017-01-12T17:53:20Z</time>
      </trkpt>
      <trkpt lat="45.50015" lon="-0.57363">
        <ele>28</ele>
        <time>2017-01-12T17:53:00Z</time>
      </trkpt>
      <trkpt lat="45.50127" lon="-0.57315">
        <ele>31</ele>
        <time>2017-01-12T17:52:40Z</time>
      </trkpt>
      <trkpt lat="45.50158" lon="-0.57271">
        <ele>32</ele>
        <time>2017-01-12T17:52:20Z</time>
      </trkpt>
      <trkpt lat="45.50135" lon="-0.57228">
        <ele>33</ele>
        <time>2017-01-12T17:52:00Z</time>
      </trkpt>
      <trkpt lat="45.50101" lon="-0.57112">
        <ele>34</ele>
        <time>2017-01-12T17:51:40Z</time>
      </trkpt>
      <trkpt lat="45.50045" lon="-0.57038">
        <ele>31</ele>
        <time>2017-01-12T17:51:20Z</time>
      </trkpt>
      <trkpt lat="45.50341" lon="-0.56729">
        <ele>33</ele>
        <time>2017-01-12T17:51:00Z</time>
      </trkpt>
      <trkpt lat="45.50533" lon="-0.56654">
        <ele>32</ele>
        <time>2017-01-12T17:50:40Z</time>
      </trkpt>
      <trkpt lat="45.50717" lon="-0.566">
        <ele>28</ele>
        <time>2017-01-12T17:50:20Z</time>
      </trkpt>
      <trkpt lat="45.50779" lon="-0.56621">
        <ele>28</ele>
        <time>2017-01-12T17:50:00Z</time>
      </trkpt>
      <trkpt lat="45.50946" lon="-0.5662">
        <ele>35</ele>
        <time>2017-01-12T17:49:40Z</time>
      </trkpt>
      <trkpt lat="45.51045" lon="-0.56565">
        <ele>34</ele>
        <time>2017-01-12T17:49:20Z</time>
      </trkpt>
      <trkpt lat="45.51188" lon="-0.56534">
        <ele>31</ele>
        <time>2017-01-12T17:49:00Z</time>
      </trkpt>
      <trkpt lat="45.51271" lon="-0.56493">
        <ele>30</ele>
        <time>2017-01-12T17:48:40Z</time>
      </trkpt>
      <trkpt lat="45.51431" lon="-0.56465">
        <ele>35</ele>
        <time>2017-01-12T17:48:20Z</time>
      </trkpt>
      <trkpt lat="45.51538" lon="-0.56426">
        <ele>37</ele>
        <time>2017-01-12T17:48:00Z</time>
      </trkpt>
      <trkpt lat="45.51576" lon="-0.56551">
        <ele>36</ele>
        <time>2017-01-12T17:47:40Z</time>
      </trkpt>
      <trkpt lat="45.51603" lon="-0.56608">
        <ele>37</ele>
        <time>2017-01-12T17:47:20Z</time>
      </trkpt>
      <trkpt lat="45.51618" lon="-0.56676">
        <ele>37</ele>
        <time>2017-01-12T17:47:00Z</time>
      </trkpt>
      <trkpt lat="45.5167" lon="-0.56729">
        <ele>38</ele>
        <time>2017-01-12T17:46:40Z</time>
      </trkpt>
      <trkpt lat="45.51743" lon="-0.56854">
        <ele>38</ele>
        <time>2017-01-12T17:46:20Z</time>
      </trkpt>
      <trkpt lat="45.5181" lon="-0.56948">
        <ele>37</ele>
        <time>2017-01-12T17:46:00Z</time>
      </trkpt>
      <trkpt lat="45.5186" lon="-0.5693">
        <ele>38</ele>
        <time>2017-01-12T17:45:40Z</time>
      </trkpt>
      <trkpt lat="45.51894" lon="-0.56964">
        <ele>38</ele>
        <time>2017-01-12T17:45:20Z</time>
      </trkpt>
      <trkpt lat="45.51886" lon="-0.57014">
        <ele>37</ele>
        <time>2017-01-12T17:45:00Z</time>
      </trkpt>
      <trkpt lat="45.51945" lon="-0.57224">
        <ele>36</ele>
        <time>2017-01-12T17:44:40Z</time>
      </trkpt>
      <trkpt lat="45.52142" lon="-0.57158">
        <ele>40</ele>
        <time>2017-01-12T17:44:20Z</time>
      </trkpt>
      <trkpt lat="45.52205" lon="-0.57174">
        <ele>40</ele>
        <time>2017-01-12T17:44:00Z</time>
      </trkpt>
      <trkpt lat="45.52269" lon="-0.57177">
        <ele>38</ele>
        <time>2017-01-12T17:43:40Z</time>
      </trkpt>
      <trkpt lat="45.5233" lon="-0.5719">
        <ele>37</ele>
        <time>2017-01-12T17:43:20Z</time>
      </trkpt>
      <trkpt lat="45.52409" lon="-0.57241">
        <ele>34</ele>
        <time>2017-01-12T17:43:00Z</time>
      </trkpt>
      <trkpt lat="45.52481" lon="-0.57275">
        <ele>31</ele>
        <time>2017-01-12T17:42:40Z</time>
      </trkpt>
      <trkpt lat="45.52499" lon="-0.57309">
        <ele>30</ele>
        <time>2017-01-12T17:42:20Z</time>
      </trkpt>
      <trkpt lat="45.52512" lon="-0.57307">
        <ele>28</ele>
        <time>2017-01-12T17:42:00Z</time>
      </trkpt>
      <trkpt lat="45.52554" lon="-0.57248">
        <ele>32</ele>
        <time>2017-01-12T17:41:40Z</time>
      </trkpt>
      <trkpt lat="45.52651" lon="-0.57162">
        <ele>37</ele>
        <time>2017-01-12T17:41:20Z</time>
      </trkpt>
      <trkpt lat="45.52779" lon="-0.57009">
        <ele>36</ele>
        <time>2017-01-12T17:41:00Z</time>
      </trkpt>
      <trkpt lat="45.52992" lon="-0.56719">
        <ele>36</ele>
        <time>2017-01-12T17:40:40Z</time>
      </trkpt>
      <trkpt lat="45.53101" lon="-0.56603">
        <ele>26</ele>
        <time>2017-01-12T17:40:20Z</time>
      </trkpt>
      <trkpt lat="45.53195" lon="-0.56482">
        <ele>23</ele>
        <time>2017-01-12T17:40:00Z</time>
      </trkpt>
      <trkpt lat="45.53458" lon="-0.56097">
        <ele>23</ele>
        <time>2017-01-12T17:39:40Z</time>
      </trkpt>
      <trkpt lat="45.53522" lon="-0.56085">
        <ele>24</ele>
        <time>2017-01-12T17:39:20Z</time>
      </trkpt>
      <trkpt lat="45.53536" lon="-0.56209">
        <ele>25</ele>
        <time>2017-01-12T17:39:00Z</time>
      </trkpt>
      <trkpt lat="45.53641" lon="-0.56225">
        <ele>30</ele>
        <time>2017-01-12T17:38:40Z</time>
      </trkpt>
      <trkpt lat="45.53661" lon="-0.56247">
        <ele>31</ele>
        <time>2017-01-12T17:38:20Z</time>
      </trkpt>
      <trkpt lat="45.5366" lon="-0.56414">
        <ele>34</ele>
        <time>2017-01-12T17:38:00Z</time>
      </trkpt>
      <trkpt lat="45.53686" lon="-0.56439">
        <ele>34</ele>
        <time>2017-01-12T17:37:40Z</time>
      </trkpt>
      <trkpt lat="45.53673" lon="-0.56653">
        <ele>35</ele>
        <time>2017-01-12T17:37:20Z</time>
      </trkpt>
      <trkpt lat="45.53664" lon="-0.57077">
        <ele>38</ele>
        <time>2017-01-12T17:37:00Z</time>
      </trkpt>
      <trkpt lat="45.53848" lon="-0.57385">
        <ele>42</ele>
        <time>2017-01-12T17:36:40Z</time>
      </trkpt>
      <trkpt lat="45.53885" lon="-0.57331">
        <ele>42</ele>
        <time>2017-01-12T17:36:20Z</time>
      </trkpt>
      <trkpt lat="45.53934" lon="-0.57234">
        <ele>39</ele>
        <time>2017-01-12T17:36:00Z</time>
      </trkpt>
      <trkpt lat="45.53979" lon="-0.57192">
        <ele>39</ele>
        <time>2017-01-12T17:35:40Z</time>
      </trkpt>
      <trkpt lat="45.5408" lon="-0.57152">
        <ele>39</ele>
        <time>2017-01-12T17:35:20Z</time>
      </trkpt>
      <trkpt lat="45.54169" lon="-0.57072">
        <ele>39</ele>
        <time>2017-01-12T17:35:00Z</time>
      </trkpt>
      <trkpt lat="45.54349" lon="-0.56959">
        <ele>38</ele>
        <time>2017-01-12T17:34:40Z</time>
      </trkpt>
      <trkpt lat="45.54453" lon="-0.56869">
        <ele>35</ele>
        <time>2017-01-12T17:34:20Z</time>
      </trkpt>
      <trkpt lat="45.54517" lon="-0.5678">
        <ele>35</ele>
        <time>2017-01-12T17:34:00Z</time>
      </trkpt>
      <trkpt lat="45.54692" lon="-0.56709">
        <ele>33</ele>
        <time>2017-01-12T17:33:40Z</time>
      </trkpt>
      <trkpt lat="45.54781" lon="-0.56666">
        <ele>31</ele>
        <time>2017-01-12T17:33:20Z</time>
      </trkpt>
      <trkpt lat="45.54967" lon="-0.5656">
        <ele>27</ele>
        <time>2017-01-12T17:33:00Z</time>
      </trkpt>
      <trkpt lat="45.55029" lon="-0.56441">
        <ele>27</ele>
        <time>2017-01-12T17:32:40Z</time>
      </trkpt>
      <trkpt lat="45.55148" lon="-0.56282">
        <ele>29</ele>
        <time>2017-01-12T17:32:20Z</time>
      </trkpt>
      <trkpt lat="45.5519" lon="-0.56198">
        <ele>29</ele>
        <time>2017-01-12T17:32:00Z</time>
      </trkpt>
      <trkpt lat="45.55218" lon="-0.56106">
        <ele>28</ele>
        <time>2017-01-12T17:31:40Z</time>
      </trkpt>
      <trkpt lat="45.55356" lon="-0.56041">
        <ele>27</ele>
        <time>2017-01-12T17:31:20Z</time>
      </trkpt>
      <trkpt lat="45.55431" lon="-0.55963">
        <ele>28</ele>
        <time>2017-01-12T17:31:00Z</time>
      </trkpt>
      <trkpt lat="45.55606" lon="-0.55833">
        <ele>27</ele>
        <time>2017-01-12T17:30:40Z</time>
      </trkpt>
      <trkpt lat="45.55769" lon="-0.55695">
        <ele>25</ele>
        <time>2017-01-12T17:30:20Z</time>
      </trkpt>
      <trkpt lat="45.55782" lon="-0.55614">
        <ele>25</ele>
        <time>2017-01-12T17:30:00Z</time>
      </trkpt>
      <trkpt lat="45.55761" lon="-0.55417">
        <ele>24</ele>
        <time>2017-01-12T17:29:40Z</time>
      </trkpt>
      <trkpt lat="45.55815" lon="-0.55288">
        <ele>21</ele>
        <time>2017-01-12T17:29:20Z</time>
      </trkpt>
      <trkpt lat="45.55843" lon="-0.55188">
        <ele>18</ele>
        <time>2017-01-12T17:29:00Z</time>
      </trkpt>
      <trkpt lat="45.56028" lon="-0.55239">
        <ele>16</ele>
        <time>2017-01-12T17:28:40Z</time>
      </trkpt>
      <trkpt lat="45.56116" lon="-0.55277">
        <ele>17</ele>
        <time>2017-01-12T17:28:20Z</time>
      </trkpt>
      <trkpt lat="45.56193" lon="-0.55299">
        <ele>18</ele>
        <time>2017-01-12T17:28:00Z</time>
      </trkpt>
      <trkpt lat="45.56258" lon="-0.55356">
        <ele>19</ele>
        <time>2017-01-12T17:27:40Z</time>
      </trkpt>
      <trkpt lat="45.56891" lon="-0.55199">
        <ele>23</ele>
        <time>2017-01-12T17:27:20Z</time>
      </trkpt>
      <trkpt lat="45.57059" lon="-0.55085">
        <ele>26</ele>
        <time>2017-01-12T17:27:00Z</time>
      </trkpt>
      <trkpt lat="45.57266" lon="-0.54889">
        <ele>17</ele>
        <time>2017-01-12T17:26:40Z</time>
      </trkpt>
      <trkpt lat="45.57364" lon="-0.54934">
        <ele>19</ele>
        <time>2017-01-12T17:26:20Z</time>
      </trkpt>
      <trkpt lat="45.57466" lon="-0.54893">
        <ele>18</ele>
        <time>2017-01-12T17:26:00Z</time>
      </trkpt>
      <trkpt lat="45.57563" lon="-0.5497">
        <ele>18</ele>
        <time>2017-01-12T17:25:40Z</time>
      </trkpt>
      <trkpt lat="45.57717" lon="-0.5494">
        <ele>28</ele>
        <time>2017-01-12T17:25:20Z</time>
      </trkpt>
      <trkpt lat="45.57872" lon="-0.54824">
        <ele>41</ele>
        <time>2017-01-12T17:25:00Z</time>
      </trkpt>
      <trkpt lat="45.57856" lon="-0.54771">
        <ele>41</ele>
        <time>2017-01-12T17:24:40Z</time>
      </trkpt>
      <trkpt lat="45.57903" lon="-0.54728">
        <ele>39</ele>
        <time>2017-01-12T17:24:20Z</time>
      </trkpt>
      <trkpt lat="45.57919" lon="-0.54636">
        <ele>36</ele>
        <time>2017-01-12T17:24:00Z</time>
      </trkpt>
      <trkpt lat="45.57954" lon="-0.54601">
        <ele>35</ele>
        <time>2017-01-12T17:23:40Z</time>
      </trkpt>
      <trkpt lat="45.5794" lon="-0.54555">
        <ele>31</ele>
        <time>2017-01-12T17:23:20Z</time>
      </trkpt>
      <trkpt lat="45.58047" lon="-0.54506">
        <ele>32</ele>
        <time>2017-01-12T17:23:00Z</time>
      </trkpt>
      <trkpt lat="45.58146" lon="-0.54497">
        <ele>31</ele>
        <time>2017-01-12T17:22:40Z</time>
      </trkpt>
      <trkpt lat="45.58214" lon="-0.54469">
        <ele>32</ele>
        <time>2017-01-12T17:22:20Z</time>
      </trkpt>
      <trkpt lat="45.58211" lon="-0.54401">
        <ele>23</ele>
        <time>2017-01-12T17:22:00Z</time>
      </trkpt>
      <trkpt lat="45.58218" lon="-0.54374">
        <ele>22</ele>
        <time>2017-01-12T17:21:40Z</time>
      </trkpt>
      <trkpt lat="45.58209" lon="-0.54308">
        <ele>17</ele>
        <time>2017-01-12T17:21:20Z</time>
      </trkpt>
      <trkpt lat="45.5834" lon="-0.5431">
        <ele>21</ele>
        <time>2017-01-12T17:21:00Z</time>
      </trkpt>
      <trkpt lat="45.58427" lon="-0.54343">
        <ele>25</ele>
        <time>2017-01-12T17:20:40Z</time>
      </trkpt>
      <trkpt lat="45.58446" lon="-0.54414">
        <ele>26</ele>
        <time>2017-01-12T17:20:20Z</time>
      </trkpt>
      <trkpt lat="45.58489" lon="-0.54471">
        <ele>28</ele>
        <time>2017-01-12T17:20:00Z</time>
      </trkpt>
      <trkpt lat="45.58511" lon="-0.54589">
        <ele>30</ele>
        <time>2017-01-12T17:19:40Z</time>
      </trkpt>
      <trkpt lat="45.5883" lon="-0.54782">
        <ele>27</ele>
        <time>2017-01-12T17:19:20Z</time>
      </trkpt>
      <trkpt lat="45.58914" lon="-0.54973">
        <ele>28</ele>
        <time>2017-01-12T17:19:00Z</time>
      </trkpt>
      <trkpt lat="45.58953" lon="-0.54986">
        <ele>28</ele>
        <time>2017-01-12T17:18:40Z</time>
      </trkpt>
      <trkpt lat="45.59043" lon="-0.54952">
        <ele>31</ele>
        <time>2017-01-12T17:18:20Z</time>
      </trkpt>
      <trkpt lat="45.59126" lon="-0.54979">
        <ele>34</ele>
        <time>2017-01-12T17:18:00Z</time>
      </trkpt>
      <trkpt lat="45.59259" lon="-0.55059">
        <ele>37</ele>
        <time>2017-01-12T17:17:40Z</time>
      </trkpt>
      <trkpt lat="45.59378" lon="-0.55248">
        <ele>39</ele>
        <time>2017-01-12T17:17:20Z</time>
      </trkpt>
      <trkpt lat="45.59504" lon="-0.55464">
        <ele>42</ele>
        <time>2017-01-12T17:17:00Z</time>
      </trkpt>
      <trkpt lat="45.59708" lon="-0.55608">
        <ele>43</ele>
        <time>2017-01-12T17:16:40Z</time>
      </trkpt>
      <trkpt lat="45.5981" lon="-0.55717">
        <ele>43</ele>
        <time>2017-01-12T17:16:20Z</time>
      </trkpt>
      <trkpt lat="45.59895" lon="-0.55776">
        <ele>41</ele>
        <time>2017-01-12T17:16:00Z</time>
      </trkpt>
      <trkpt lat="45.60085" lon="-0.55939">
        <ele>39</ele>
        <time>2017-01-12T17:15:40Z</time>
      </trkpt>
      <trkpt lat="45.60155" lon="-0.56011">
        <ele>41</ele>
        <time>2017-01-12T17:15:20Z</time>
      </trkpt>
      <trkpt lat="45.60187" lon="-0.56088">
        <ele>42</ele>
        <time>2017-01-12T17:15:00Z</time>
      </trkpt>
      <trkpt lat="45.60292" lon="-0.56127">
        <ele>39</ele>
        <time>2017-01-12T17:14:40Z</time>
      </trkpt>
      <trkpt lat="45.60461" lon="-0.56297">
        <ele>41</ele>
        <time>2017-01-12T17:14:20Z</time>
      </trkpt>
      <trkpt lat="45.60503" lon="-0.56404">
        <ele>44</ele>
        <time>2017-01-12T17:14:00Z</time>
      </trkpt>
      <trkpt lat="45.60538" lon="-0.56451">
        <ele>46</ele>
        <time>2017-01-12T17:13:40Z</time>
      </trkpt>
      <trkpt lat="45.60602" lon="-0.5647">
        <ele>42</ele>
        <time>2017-01-12T17:13:20Z</time>
      </trkpt>
      <trkpt lat="45.60706" lon="-0.56543">
        <ele>40</ele>
        <time>2017-01-12T17:13:00Z</time>
      </trkpt>
      <trkpt lat="45.60765" lon="-0.56596">
        <ele>40</ele>
        <time>2017-01-12T17:12:40Z</time>
      </trkpt>
      <trkpt lat="45.60852" lon="-0.56756">
        <ele>43</ele>
        <time>2017-01-12T17:12:20Z</time>
      </trkpt>
      <trkpt lat="45.60876" lon="-0.56758">
        <ele>43</ele>
        <time>2017-01-12T17:12:00Z</time>
      </trkpt>
      <trkpt lat="45.61033" lon="-0.56919">
        <ele>44</ele>
        <time>2017-01-12T17:11:40Z</time>
      </trkpt>
      <trkpt lat="45.61232" lon="-0.57082">
        <ele>41</ele>
        <time>2017-01-12T17:11:20Z</time>
      </trkpt>
      <trkpt lat="45.61331" lon="-0.57201">
        <ele>45</ele>
        <time>2017-01-12T17:11:00Z</time>
      </trkpt>
      <trkpt lat="45.61361" lon="-0.57278">
        <ele>46</ele>
        <time>2017-01-12T17:10:40Z</time>
      </trkpt>
      <trkpt lat="45.61426" lon="-0.5734">
        <ele>47</ele>
        <time>2017-01-12T17:10:20Z</time>
      </trkpt>
      <trkpt lat="45.61616" lon="-0.57427">
        <ele>49</ele>
        <time>2017-01-12T17:10:00Z</time>
      </trkpt>
      <trkpt lat="45.61646" lon="-0.575">
        <ele>51</ele>
        <time>2017-01-12T17:09:40Z</time>
      </trkpt>
      <trkpt lat="45.61736" lon="-0.57619">
        <ele>50</ele>
        <time>2017-01-12T17:09:20Z</time>
      </trkpt>
      <trkpt lat="45.61789" lon="-0.57568">
        <ele>50</ele>
        <time>2017-01-12T17:09:00Z</time>
      </trkpt>
      <trkpt lat="45.61821" lon="-0.57564">
        <ele>49</ele>
        <time>2017-01-12T17:08:40Z</time>
      </trkpt>
      <trkpt lat="45.61876" lon="-0.57532">
        <ele>49</ele>
        <time>2017-01-12T17:08:20Z</time>
      </trkpt>
      <trkpt lat="45.61985" lon="-0.57352">
        <ele>51</ele>
        <time>2017-01-12T17:08:00Z</time>
      </trkpt>
      <trkpt lat="45.62137" lon="-0.56962">
        <ele>52</ele>
        <time>2017-01-12T17:07:40Z</time>
      </trkpt>
      <trkpt lat="45.62236" lon="-0.57025">
        <ele>56</ele>
        <time>2017-01-12T17:07:20Z</time>
      </trkpt>
      <trkpt lat="45.62549" lon="-0.57345">
        <ele>58</ele>
        <time>2017-01-12T17:07:00Z</time>
      </trkpt>
      <trkpt lat="45.62977" lon="-0.57686">
        <ele>55</ele>
        <time>2017-01-12T17:06:40Z</time>
      </trkpt>
      <trkpt lat="45.63062" lon="-0.57819">
        <ele>58</ele>
        <time>2017-01-12T17:06:20Z</time>
      </trkpt>
      <trkpt lat="45.63204" lon="-0.58025">
        <ele>65</ele>
        <time>2017-01-12T17:06:00Z</time>
      </trkpt>
      <trkpt lat="45.63575" lon="-0.5846">
        <ele>61</ele>
        <time>2017-01-12T17:05:40Z</time>
      </trkpt>
      <trkpt lat="45.63647" lon="-0.58529">
        <ele>62</ele>
        <time>2017-01-12T17:05:20Z</time>
      </trkpt>
      <trkpt lat="45.63723" lon="-0.58626">
        <ele>63</ele>
        <time>2017-01-12T17:05:00Z</time>
      </trkpt>
      <trkpt lat="45.63873" lon="-0.58755">
        <ele>62</ele>
        <time>2017-01-12T17:04:40Z</time>
      </trkpt>
      <trkpt lat="45.63933" lon="-0.58775">
        <ele>60</ele>
        <time>2017-01-12T17:04:20Z</time>
      </trkpt>
      <trkpt lat="45.64079" lon="-0.58875">
        <ele>58</ele>
        <time>2017-01-12T17:04:00Z</time>
      </trkpt>
      <trkpt lat="45.64171" lon="-0.5897">
        <ele>54</ele>
        <time>2017-01-12T17:03:40Z</time>
      </trkpt>
      <trkpt lat="45.64196" lon="-0.59017">
        <ele>56</ele>
        <time>2017-01-12T17:03:20Z</time>
      </trkpt>
      <trkpt lat="45.64282" lon="-0.59137">
        <ele>57</ele>
        <time>2017-01-12T17:03:00Z</time>
      </trkpt>
      <trkpt lat="45.64315" lon="-0.59228">
        <ele>58</ele>
        <time>2017-01-12T17:02:40Z</time>
      </trkpt>
      <trkpt lat="45.64427" lon="-0.59485">
        <ele>55</ele>
        <time>2017-01-12T17:02:20Z</time>
      </trkpt>
      <trkpt lat="45.64617" lon="-0.59718">
        <ele>59</ele>
        <time>2017-01-12T17:02:00Z</time>
      </trkpt>
      <trkpt lat="45.64754" lon="-0.5983">
        <ele>59</ele>
        <time>2017-01-12T17:01:40Z</time>
      </trkpt>
      <trkpt lat="45.6483" lon="-0.59953">
        <ele>56</ele>
        <time>2017-01-12T17:01:20Z</time>
      </trkpt>
      <trkpt lat="45.64899" lon="-0.60023">
        <ele>55</ele>
        <time>2017-01-12T17:01:00Z</time>
      </trkpt>
      <trkpt lat="45.6496" lon="-0.60124">
        <ele>53</ele>
        <time>2017-01-12T17:00:40Z</time>
      </trkpt>
      <trkpt lat="45.65026" lon="-0.60183">
        <ele>54</ele>
        <time>2017-01-12T17:00:20Z</time>
      </trkpt>
      <trkpt lat="45.65116" lon="-0.60276">
        <ele>54</ele>
        <time>2017-01-12T17:00:00Z</time>
      </trkpt>
      <trkpt lat="45.65162" lon="-0.60365">
        <ele>57</ele>
        <time>2017-01-12T16:59:40Z</time>
      </trkpt>
      <trkpt lat="45.65267" lon="-0.60484">
        <ele>54</ele>
        <time>2017-01-12T16:59:20Z</time>
      </trkpt>
      <trkpt lat="45.65342" lon="-0.60548">
        <ele>55</ele>
        <time>2017-01-12T16:59:00Z</time>
      </trkpt>
      <trkpt lat="45.65406" lon="-0.60586">
        <ele>57</ele>
        <time>2017-01-12T16:58:40Z</time>
      </trkpt>
      <trkpt lat="45.6554" lon="-0.60626">
        <ele>54</ele>
        <time>2017-01-12T16:58:20Z</time>
      </trkpt>
      <trkpt lat="45.6561" lon="-0.60659">
        <ele>52</ele>
        <time>2017-01-12T16:58:00Z</time>
      </trkpt>
      <trkpt lat="45.6567" lon="-0.60731">
        <ele>53</ele>
        <time>2017-01-12T16:57:40Z</time>
      </trkpt>
      <trkpt lat="45.6567" lon="-0.60733">
        <ele>53</ele>
        <time>2017-01-12T16:57:20Z</time>
      </trkpt>
      <trkpt lat="45.65749" lon="-0.60737">
        <ele>54</ele>
        <time>2017-01-12T16:57:00Z</time>
      </trkpt>
      <trkpt lat="45.65878" lon="-0.60778">
        <ele>55</ele>
        <time>2017-01-12T16:56:40Z</time>
      </trkpt>
      <trkpt lat="45.65945" lon="-0.60831">
        <ele>55</ele>
        <time>2017-01-12T16:56:20Z</time>
      </trkpt>
      <trkpt lat="45.66082" lon="-0.6087">
        <ele>57</ele>
        <time>2017-01-12T16:56:00Z</time>
      </trkpt>
      <trkpt lat="45.66137" lon="-0.60901">
        <ele>57</ele>
        <time>2017-01-12T16:55:40Z</time>
      </trkpt>
      <trkpt lat="45.66206" lon="-0.60978">
        <ele>57</ele>
        <time>2017-01-12T16:55:20Z</time>
      </trkpt>
      <trkpt lat="45.66266" lon="-0.61042">
        <ele>56</ele>
        <time>2017-01-12T16:55:00Z</time>
      </trkpt>
      <trkpt lat="45.66307" lon="-0.6112">
        <ele>57</ele>
        <time>2017-01-12T16:54:40Z</time>
      </trkpt>
      <trkpt lat="45.66359" lon="-0.61187">
        <ele>57</ele>
        <time>2017-01-12T16:54:20Z</time>
      </trkpt>
      <trkpt lat="45.66409" lon="-0.6121">
        <ele>57</ele>
        <time>2017-01-12T16:54:00Z</time>
      </trkpt>
      <trkpt lat="45.66431" lon="-0.61238">
        <ele>56</ele>
        <time>2017-01-12T16:53:40Z</time>
      </trkpt>
      <trkpt lat="45.66466" lon="-0.61217">
        <ele>53</ele>
        <time>2017-01-12T16:53:20Z</time>
      </trkpt>
      <trkpt lat="45.66603" lon="-0.61279">
        <ele>53</ele>
        <time>2017-01-12T16:53:00Z</time>
      </trkpt>
      <trkpt lat="45.66682" lon="-0.61264">
        <ele>52</ele>
        <time>2017-01-12T16:52:40Z</time>
      </trkpt>
      <trkpt lat="45.66826" lon="-0.61255">
        <ele>56</ele>
        <time>2017-01-12T16:52:20Z</time>
      </trkpt>
      <trkpt lat="45.66875" lon="-0.61231">
        <ele>55</ele>
        <time>2017-01-12T16:52:00Z</time>
      </trkpt>
      <trkpt lat="45.66932" lon="-0.61253">
        <ele>57</ele>
        <time>2017-01-12T16:51:40Z</time>
      </trkpt>
      <trkpt lat="45.66982" lon="-0.61295">
        <ele>56</ele>
        <time>2017-01-12T16:51:20Z</time>
      </trkpt>
      <trkpt lat="45.67142" lon="-0.61498">
        <ele>55</ele>
        <time>2017-01-12T16:51:00Z</time>
      </trkpt>
      <trkpt lat="45.6723" lon="-0.61566">
        <ele>53</ele>
        <time>2017-01-12T16:50:40Z</time>
      </trkpt>
      <trkpt lat="45.67302" lon="-0.61581">
        <ele>52</ele>
        <time>2017-01-12T16:50:20Z</time>
      </trkpt>
      <trkpt lat="45.67378" lon="-0.6163">
        <ele>56</ele>
        <time>2017-01-12T16:50:00Z</time>
      </trkpt>
      <trkpt lat="45.67524" lon="-0.61809">
        <ele>55</ele>
        <time>2017-01-12T16:49:40Z</time>
      </trkpt>
      <trkpt lat="45.67625" lon="-0.61879">
        <ele>47</ele>
        <time>2017-01-12T16:49:20Z</time>
      </trkpt>
      <trkpt lat="45.67829" lon="-0.61987">
        <ele>30</ele>
        <time>2017-01-12T16:49:00Z</time>
      </trkpt>
      <trkpt lat="45.67962" lon="-0.62079">
        <ele>21</ele>
        <time>2017-01-12T16:48:40Z</time>
      </trkpt>
      <trkpt lat="45.68129" lon="-0.6211">
        <ele>18</ele>
        <time>2017-01-12T16:48:20Z</time>
      </trkpt>
      <trkpt lat="45.68381" lon="-0.62173">
        <ele>12</ele>
        <time>2017-01-12T16:48:00Z</time>
      </trkpt>
      <trkpt lat="45.68409" lon="-0.62115">
        <ele>12</ele>
        <time>2017-01-12T16:47:40Z</time>
      </trkpt>
      <trkpt lat="45.68579" lon="-0.61923">
        <ele>10</ele>
        <time>2017-01-12T16:47:20Z</time>
      </trkpt>
      <trkpt lat="45.68872" lon="-0.61726">
        <ele>8</ele>
        <time>2017-01-12T16:47:00Z</time>
      </trkpt>
      <trkpt lat="45.69004" lon="-0.61889">
        <ele>7</ele>
        <time>2017-01-12T16:46:40Z</time>
      </trkpt>
      <trkpt lat="45.69149" lon="-0.61984">
        <ele>9</ele>
        <time>2017-01-12T16:46:20Z</time>
      </trkpt>
      <trkpt lat="45.69285" lon="-0.62106">
        <ele>10</ele>
        <time>2017-01-12T16:46:00Z</time>
      </trkpt>
      <trkpt lat="45.69415" lon="-0.62134">
        <ele>11</ele>
        <time>2017-01-12T16:45:40Z</time>
      </trkpt>
      <trkpt lat="45.69551" lon="-0.62183">
        <ele>10</ele>
        <time>2017-01-12T16:45:20Z</time>
      </trkpt>
      <trkpt lat="45.69687" lon="-0.62214">
        <ele>12</ele>
        <time>2017-01-12T16:45:00Z</time>
      </trkpt>
      <trkpt lat="45.69879" lon="-0.62389">
        <ele>14</ele>
        <time>2017-01-12T16:44:40Z</time>
      </trkpt>
      <trkpt lat="45.70324" lon="-0.62801">
        <ele>11</ele>
        <time>2017-01-12T16:44:20Z</time>
      </trkpt>
      <trkpt lat="45.70502" lon="-0.62917">
        <ele>16</ele>
        <time>2017-01-12T16:44:00Z</time>
      </trkpt>
      <trkpt lat="45.70596" lon="-0.62668">
        <ele>16</ele>
        <time>2017-01-12T16:43:40Z</time>
      </trkpt>
      <trkpt lat="45.71378" lon="-0.63252">
        <ele>10</ele>
        <time>2017-01-12T16:43:20Z</time>
      </trkpt>
      <trkpt lat="45.71386" lon="-0.63218">
        <ele>12</ele>
        <time>2017-01-12T16:43:00Z</time>
      </trkpt>
      <trkpt lat="45.71444" lon="-0.63206">
        <ele>10</ele>
        <time>2017-01-12T16:42:40Z</time>
      </trkpt>
      <trkpt lat="45.71493" lon="-0.63163">
        <ele>11</ele>
        <time>2017-01-12T16:42:20Z</time>
      </trkpt>
      <trkpt lat="45.71547" lon="-0.63146">
        <ele>10</ele>
        <time>2017-01-12T16:42:00Z</time>
      </trkpt>
      <trkpt lat="45.71644" lon="-0.63107">
        <ele>8</ele>
        <time>2017-01-12T16:41:40Z</time>
      </trkpt>
      <trkpt lat="45.71741" lon="-0.63037">
        <ele>8</ele>
        <time>2017-01-12T16:41:20Z</time>
      </trkpt>
      <trkpt lat="45.7179" lon="-0.62963">
        <ele>9</ele>
        <time>2017-01-12T16:41:00Z</time>
      </trkpt>
      <trkpt lat="45.71853" lon="-0.62909">
        <ele>9</ele>
        <time>2017-01-12T16:40:40Z</time>
      </trkpt>
      <trkpt lat="45.71876" lon="-0.62902">
        <ele>8</ele>
        <time>2017-01-12T16:40:20Z</time>
      </trkpt>
      <trkpt lat="45.71926" lon="-0.63074">
        <ele>8</ele>
        <time>2017-01-12T16:40:00Z</time>
      </trkpt>
      <trkpt lat="45.71989" lon="-0.63109">
        <ele>9</ele>
        <time>2017-01-12T16:39:40Z</time>
      </trkpt>
      <trkpt lat="45.72083" lon="-0.63238">
        <ele>15</ele>
        <time>2017-01-12T16:39:20Z</time>
      </trkpt>
      <trkpt lat="45.72143" lon="-0.63348">
        <ele>19</ele>
        <time>2017-01-12T16:39:00Z</time>
      </trkpt>
      <trkpt lat="45.72223" lon="-0.63387">
        <ele>21</ele>
        <time>2017-01-12T16:38:40Z</time>
      </trkpt>
      <trkpt lat="45.72303" lon="-0.63472">
        <ele>22</ele>
        <time>2017-01-12T16:38:20Z</time>
      </trkpt>
      <trkpt lat="45.72338" lon="-0.63469">
        <ele>19</ele>
        <time>2017-01-12T16:38:00Z</time>
      </trkpt>
      <trkpt lat="45.72384" lon="-0.63426">
        <ele>18</ele>
        <time>2017-01-12T16:37:40Z</time>
      </trkpt>
      <trkpt lat="45.72414" lon="-0.63414">
        <ele>15</ele>
        <time>2017-01-12T16:37:20Z</time>
      </trkpt>
      <trkpt lat="45.72746" lon="-0.63718">
        <ele>14</ele>
        <time>2017-01-12T16:37:00Z</time>
      </trkpt>
      <trkpt lat="45.72769" lon="-0.63753">
        <ele>13</ele>
        <time>2017-01-12T16:36:40Z</time>
      </trkpt>
      <trkpt lat="45.72769" lon="-0.63819">
        <ele>13</ele>
        <time>2017-01-12T16:36:20Z</time>
      </trkpt>
      <trkpt lat="45.72779" lon="-0.63868">
        <ele>11</ele>
        <time>2017-01-12T16:36:00Z</time>
      </trkpt>
      <trkpt lat="45.73103" lon="-0.63937">
        <ele>11</ele>
        <time>2017-01-12T16:35:40Z</time>
      </trkpt>
      <trkpt lat="45.73255" lon="-0.63962">
        <ele>14</ele>
        <time>2017-01-12T16:35:20Z</time>
      </trkpt>
      <trkpt lat="45.73491" lon="-0.63987">
        <ele>11</ele>
        <time>2017-01-12T16:35:00Z</time>
      </trkpt>
      <trkpt lat="45.73753" lon="-0.63901">
        <ele>18</ele>
        <time>2017-01-12T16:34:40Z</time>
      </trkpt>
      <trkpt lat="45.74128" lon="-0.63726">
        <ele>7</ele>
        <time>2017-01-12T16:34:20Z</time>
      </trkpt>
      <trkpt lat="45.74177" lon="-0.63687">
        <ele>7</ele>
        <time>2017-01-12T16:34:00Z</time>
      </trkpt>
      <trkpt lat="45.74215" lon="-0.6364">
        <ele>7</ele>
        <time>2017-01-12T16:33:40Z</time>
      </trkpt>
      <trkpt lat="45.74247" lon="-0.63525">
        <ele>6</ele>
        <time>2017-01-12T16:33:20Z</time>
      </trkpt>
      <trkpt lat="45.74278" lon="-0.63468">
        <ele>7</ele>
        <time>2017-01-12T16:33:00Z</time>
      </trkpt>
      <trkpt lat="45.74351" lon="-0.63135">
        <ele>7</ele>
        <time>2017-01-12T16:32:40Z</time>
      </trkpt>
      <trkpt lat="45.74414" lon="-0.6307">
        <ele>7</ele>
        <time>2017-01-12T16:32:20Z</time>
      </trkpt>
      <trkpt lat="45.74477" lon="-0.63045">
        <ele>7</ele>
        <time>2017-01-12T16:32:00Z</time>
      </trkpt>
      <trkpt lat="45.74468" lon="-0.62926">
        <ele>5</ele>
        <time>2017-01-12T16:31:40Z</time>
      </trkpt>
      <trkpt lat="45.74714" lon="-0.62941">
        <ele>8</ele>
        <time>2017-01-12T16:31:20Z</time>
      </trkpt>
      <trkpt lat="45.74989" lon="-0.63056">
        <ele>5</ele>
        <time>2017-01-12T16:31:00Z</time>
      </trkpt>
      <trkpt lat="45.75011" lon="-0.63051">
        <ele>6</ele>
        <time>2017-01-12T16:30:40Z</time>
      </trkpt>
      <trkpt lat="45.75037" lon="-0.63067">
        <ele>6</ele>
        <time>2017-01-12T16:30:20Z</time>
      </trkpt>
      <trkpt lat="45.75115" lon="-0.63051">
        <ele>7</ele>
        <time>2017-01-12T16:30:00Z</time>
      </trkpt>
      <trkpt lat="45.75213" lon="-0.63012">
        <ele>6</ele>
        <time>2017-01-12T16:29:40Z</time>
      </trkpt>
      <trkpt lat="45.75296" lon="-0.62943">
        <ele>5</ele>
        <time>2017-01-12T16:29:20Z</time>
      </trkpt>
      <trkpt lat="45.75353" lon="-0.62862">
        <ele>5</ele>
        <time>2017-01-12T16:29:00Z</time>
      </trkpt>
      <trkpt lat="45.7536" lon="-0.62802">
        <ele>5</ele>
        <time>2017-01-12T16:28:40Z</time>
      </trkpt>
      <trkpt lat="45.7537" lon="-0.62699">
        <ele>5</ele>
        <time>2017-01-12T16:28:20Z</time>
      </trkpt>
      <trkpt lat="45.75361" lon="-0.62601">
        <ele>4</ele>
        <time>2017-01-12T16:28:00Z</time>
      </trkpt>
      <trkpt lat="45.7535" lon="-0.62568">
        <ele>3</ele>
        <time>2017-01-12T16:27:40Z</time>
      </trkpt>
      <trkpt lat="45.75337" lon="-0.6248">
        <ele>3</ele>
        <time>2017-01-12T16:27:20Z</time>
      </trkpt>
      <trkpt lat="45.75335" lon="-0.62403">
        <ele>4</ele>
        <time>2017-01-12T16:27:00Z</time>
      </trkpt>
      <trkpt lat="45.7538" lon="-0.62265">
        <ele>4</ele>
        <time>2017-01-12T16:26:40Z</time>
      </trkpt>
      <trkpt lat="45.75431" lon="-0.62197">
        <ele>3</ele>
        <time>2017-01-12T16:26:20Z</time>
      </trkpt>
      <trkpt lat="45.75452" lon="-0.62162">
        <ele>2</ele>
        <time>2017-01-12T16:26:00Z</time>
      </trkpt>
      <trkpt lat="45.75421" lon="-0.62133">
        <ele>2</ele>
        <time>2017-01-12T16:25:40Z</time>
      </trkpt>
      <trkpt lat="45.75386" lon="-0.62022">
        <ele>3</ele>
        <time>2017-01-12T16:25:20Z</time>
      </trkpt>
      <trkpt lat="45.75365" lon="-0.61883">
        <ele>8</ele>
        <time>2017-01-12T16:25:00Z</time>
      </trkpt>
      <trkpt lat="45.75475" lon="-0.6181">
        <ele>8</ele>
        <time>2017-01-12T16:24:40Z</time>
      </trkpt>
      <trkpt lat="45.75577" lon="-0.61795">
        <ele>8</ele>
        <time>2017-01-12T16:24:20Z</time>
      </trkpt>
      <trkpt lat="45.75802" lon="-0.61822">
        <ele>10</ele>
        <time>2017-01-12T16:24:00Z</time>
      </trkpt>
      <trkpt lat="45.75841" lon="-0.61814">
        <ele>10</ele>
        <time>2017-01-12T16:23:40Z</time>
      </trkpt>
      <trkpt lat="45.7587" lon="-0.61771">
        <ele>11</ele>
        <time>2017-01-12T16:23:20Z</time>
      </trkpt>
      <trkpt lat="45.75881" lon="-0.61696">
        <ele>13</ele>
        <time>2017-01-12T16:23:00Z</time>
      </trkpt>
      <trkpt lat="45.75907" lon="-0.61636">
        <ele>17</ele>
        <time>2017-01-12T16:22:40Z</time>
      </trkpt>
      <trkpt lat="45.75969" lon="-0.61578">
        <ele>20</ele>
        <time>2017-01-12T16:22:20Z</time>
      </trkpt>
      <trkpt lat="45.76009" lon="-0.61527">
        <ele>18</ele>
        <time>2017-01-12T16:22:00Z</time>
      </trkpt>
      <trkpt lat="45.76031" lon="-0.61431">
        <ele>17</ele>
        <time>2017-01-12T16:21:40Z</time>
      </trkpt>
      <trkpt lat="45.7602" lon="-0.613">
        <ele>15</ele>
        <time>2017-01-12T16:21:20Z</time>
      </trkpt>
      <trkpt lat="45.75989" lon="-0.61183">
        <ele>16</ele>
        <time>2017-01-12T16:21:00Z</time>
      </trkpt>
      <trkpt lat="45.75937" lon="-0.61119">
        <ele>16</ele>
        <time>2017-01-12T16:20:40Z</time>
      </trkpt>
      <trkpt lat="45.75877" lon="-0.61035">
        <ele>15</ele>
        <time>2017-01-12T16:20:20Z</time>
      </trkpt>
      <trkpt lat="45.75943" lon="-0.60995">
        <ele>18</ele>
        <time>2017-01-12T16:20:00Z</time>
      </trkpt>
      <trkpt lat="45.75909" lon="-0.60842">
        <ele>28</ele>
        <time>2017-01-12T16:19:40Z</time>
      </trkpt>
      <trkpt lat="45.75987" lon="-0.60924">
        <ele>27</ele>
        <time>2017-01-12T16:19:20Z</time>
      </trkpt>
      <trkpt lat="45.76015" lon="-0.60892">
        <ele>38</ele>
        <time>2017-01-12T16:19:00Z</time>
      </trkpt>
      <trkpt lat="45.76147" lon="-0.60842">
        <ele>49</ele>
        <time>2017-01-12T16:18:40Z</time>
      </trkpt>
      <trkpt lat="45.76227" lon="-0.60657">
        <ele>57</ele>
        <time>2017-01-12T16:18:20Z</time>
      </trkpt>
      <trkpt lat="45.76254" lon="-0.60562">
        <ele>56</ele>
        <time>2017-01-12T16:18:00Z</time>
      </trkpt>
      <trkpt lat="45.76394" lon="-0.60504">
        <ele>58</ele>
        <time>2017-01-12T16:17:40Z</time>
      </trkpt>
      <trkpt lat="45.76506" lon="-0.6038">
        <ele>55</ele>
        <time>2017-01-12T16:17:20Z</time>
      </trkpt>
      <trkpt lat="45.7657" lon="-0.60313">
        <ele>54</ele>
        <time>2017-01-12T16:17:00Z</time>
      </trkpt>
      <trkpt lat="45.76619" lon="-0.60278">
        <ele>52</ele>
        <time>2017-01-12T16:16:40Z</time>
      </trkpt>
      <trkpt lat="45.7669" lon="-0.60275">
        <ele>48</ele>
        <time>2017-01-12T16:16:20Z</time>
      </trkpt>
      <trkpt lat="45.76848" lon="-0.60203">
        <ele>38</ele>
        <time>2017-01-12T16:16:00Z</time>
      </trkpt>
      <trkpt lat="45.76918" lon="-0.60277">
        <ele>38</ele>
        <time>2017-01-12T16:15:40Z</time>
      </trkpt>
      <trkpt lat="45.76945" lon="-0.60366">
        <ele>32</ele>
        <time>2017-01-12T16:15:20Z</time>
      </trkpt>
      <trkpt lat="45.7696" lon="-0.6044">
        <ele>31</ele>
        <time>2017-01-12T16:15:00Z</time>
      </trkpt>
      <trkpt lat="45.76951" lon="-0.60466">
        <ele>31</ele>
        <time>2017-01-12T16:14:40Z</time>
      </trkpt>
      <trkpt lat="45.76981" lon="-0.6058">
        <ele>38</ele>
        <time>2017-01-12T16:14:20Z</time>
      </trkpt>
      <trkpt lat="45.77046" lon="-0.60558">
        <ele>29</ele>
        <time>2017-01-12T16:14:00Z</time>
      </trkpt>
      <trkpt lat="45.77104" lon="-0.60548">
        <ele>21</ele>
        <time>2017-01-12T16:13:40Z</time>
      </trkpt>
      <trkpt lat="45.77148" lon="-0.60524">
        <ele>19</ele>
        <time>2017-01-12T16:13:20Z</time>
      </trkpt>
      <trkpt lat="45.77191" lon="-0.6052">
        <ele>19</ele>
        <time>2017-01-12T16:13:00Z</time>
      </trkpt>
      <trkpt lat="45.77182" lon="-0.60457">
        <ele>23</ele>
        <time>2017-01-12T16:12:40Z</time>
      </trkpt>
      <trkpt lat="45.77162" lon="-0.60376">
        <ele>26</ele>
        <time>2017-01-12T16:12:20Z</time>
      </trkpt>
      <trkpt lat="45.77138" lon="-0.602">
        <ele>31</ele>
        <time>2017-01-12T16:12:00Z</time>
      </trkpt>
      <trkpt lat="45.77091" lon="-0.60119">
        <ele>34</ele>
        <time>2017-01-12T16:11:40Z</time>
      </trkpt>
      <trkpt lat="45.77066" lon="-0.60021">
        <ele>34</ele>
        <time>2017-01-12T16:11:20Z</time>
      </trkpt>
      <trkpt lat="45.77055" lon="-0.59915">
        <ele>34</ele>
        <time>2017-01-12T16:11:00Z</time>
      </trkpt>
      <trkpt lat="45.77041" lon="-0.5985">
        <ele>33</ele>
        <time>2017-01-12T16:10:40Z</time>
      </trkpt>
      <trkpt lat="45.76995" lon="-0.59763">
        <ele>33</ele>
        <time>2017-01-12T16:10:20Z</time>
      </trkpt>
      <trkpt lat="45.77031" lon="-0.59582">
        <ele>37</ele>
        <time>2017-01-12T16:10:00Z</time>
      </trkpt>
      <trkpt lat="45.77083" lon="-0.59429">
        <ele>36</ele>
        <time>2017-01-12T16:09:40Z</time>
      </trkpt>
      <trkpt lat="45.77108" lon="-0.59371">
        <ele>35</ele>
        <time>2017-01-12T16:09:20Z</time>
      </trkpt>
      <trkpt lat="45.77157" lon="-0.59348">
        <ele>34</ele>
        <time>2017-01-12T16:09:00Z</time>
      </trkpt>
      <trkpt lat="45.77187" lon="-0.59268">
        <ele>34</ele>
        <time>2017-01-12T16:08:40Z</time>
      </trkpt>
      <trkpt lat="45.77205" lon="-0.59249">
        <ele>36</ele>
        <time>2017-01-12T16:08:20Z</time>
      </trkpt>
      <trkpt lat="45.77218" lon="-0.59212">
        <ele>37</ele>
        <time>2017-01-12T16:08:00Z</time>
      </trkpt>
      <trkpt lat="45.77239" lon="-0.59207">
        <ele>37</ele>
        <time>2017-01-12T16:07:40Z</time>
      </trkpt>
      <trkpt lat="45.77296" lon="-0.5924">
        <ele>39</ele>
        <time>2017-01-12T16:07:20Z</time>
      </trkpt>
      <trkpt lat="45.77338" lon="-0.59121">
        <ele>42</ele>
        <time>2017-01-12T16:07:00Z</time>
      </trkpt>
      <trkpt lat="45.77381" lon="-0.59141">
        <ele>43</ele>
        <time>2017-01-12T16:06:40Z</time>
      </trkpt>
      <trkpt lat="45.7743" lon="-0.59128">
        <ele>48</ele>
        <time>2017-01-12T16:06:20Z</time>
      </trkpt>
      <trkpt lat="45.77436" lon="-0.59151">
        <ele>49</ele>
        <time>2017-01-12T16:06:00Z</time>
      </trkpt>
      <trkpt lat="45.77517" lon="-0.59208">
        <ele>59</ele>
        <time>2017-01-12T16:05:40Z</time>
      </trkpt>
      <trkpt lat="45.7762" lon="-0.59361">
        <ele>59</ele>
        <time>2017-01-12T16:05:20Z</time>
      </trkpt>
      <trkpt lat="45.77667" lon="-0.5931">
        <ele>60</ele>
        <time>2017-01-12T16:05:00Z</time>
      </trkpt>
      <trkpt lat="45.77728" lon="-0.59299">
        <ele>61</ele>
        <time>2017-01-12T16:04:40Z</time>
      </trkpt>
      <trkpt lat="45.77774" lon="-0.59237">
        <ele>62</ele>
        <time>2017-01-12T16:04:20Z</time>
      </trkpt>
      <trkpt lat="45.77879" lon="-0.59178">
        <ele>65</ele>
        <time>2017-01-12T16:04:00Z</time>
      </trkpt>
      <trkpt lat="45.78056" lon="-0.59138">
        <ele>67</ele>
        <time>2017-01-12T16:03:40Z</time>
      </trkpt>
      <trkpt lat="45.78098" lon="-0.59059">
        <ele>68</ele>
        <time>2017-01-12T16:03:20Z</time>
      </trkpt>
      <trkpt lat="45.78163" lon="-0.58971">
        <ele>69</ele>
        <time>2017-01-12T16:03:00Z</time>
      </trkpt>
      <trkpt lat="45.78328" lon="-0.58898">
        <ele>70</ele>
        <time>2017-01-12T16:02:40Z</time>
      </trkpt>
      <trkpt lat="45.78385" lon="-0.58866">
        <ele>71</ele>
        <time>2017-01-12T16:02:20Z</time>
      </trkpt>
      <trkpt lat="45.78545" lon="-0.58637">
        <ele>71</ele>
        <time>2017-01-12T16:02:00Z</time>
      </trkpt>
      <trkpt lat="45.78643" lon="-0.58546">
        <ele>71</ele>
        <time>2017-01-12T16:01:40Z</time>
      </trkpt>
      <trkpt lat="45.78764" lon="-0.58416">
        <ele>73</ele>
        <time>2017-01-12T16:01:20Z</time>
      </trkpt>
      <trkpt lat="45.78859" lon="-0.58376">
        <ele>72</ele>
        <time>2017-01-12T16:01:00Z</time>
      </trkpt>
      <trkpt lat="45.78998" lon="-0.58203">
        <ele>74</ele>
        <time>2017-01-12T16:00:40Z</time>
      </trkpt>
      <trkpt lat="45.79284" lon="-0.58002">
        <ele>71</ele>
        <time>2017-01-12T16:00:20Z</time>
      </trkpt>
      <trkpt lat="45.79286" lon="-0.57916">
        <ele>71</ele>
        <time>2017-01-12T16:00:00Z</time>
      </trkpt>
      <trkpt lat="45.793" lon="-0.57855">
        <ele>70</ele>
        <time>2017-01-12T15:59:40Z</time>
      </trkpt>
      <trkpt lat="45.79384" lon="-0.57929">
        <ele>66</ele>
        <time>2017-01-12T15:59:20Z</time>
      </trkpt>
      <trkpt lat="45.7945" lon="-0.57922">
        <ele>64</ele>
        <time>2017-01-12T15:59:00Z</time>
      </trkpt>
      <trkpt lat="45.79603" lon="-0.57915">
        <ele>58</ele>
        <time>2017-01-12T15:58:40Z</time>
      </trkpt>
      <trkpt lat="45.79659" lon="-0.57884">
        <ele>56</ele>
        <time>2017-01-12T15:58:20Z</time>
      </trkpt>
      <trkpt lat="45.79695" lon="-0.5795">
        <ele>51</ele>
        <time>2017-01-12T15:58:00Z</time>
      </trkpt>
      <trkpt lat="45.79794" lon="-0.58031">
        <ele>47</ele>
        <time>2017-01-12T15:57:40Z</time>
      </trkpt>
      <trkpt lat="45.79924" lon="-0.58031">
        <ele>50</ele>
        <time>2017-01-12T15:57:20Z</time>
      </trkpt>
      <trkpt lat="45.80064" lon="-0.58097">
        <ele>50</ele>
        <time>2017-01-12T15:57:00Z</time>
      </trkpt>
      <trkpt lat="45.80218" lon="-0.58189">
        <ele>52</ele>
        <time>2017-01-12T15:56:40Z</time>
      </trkpt>
      <trkpt lat="45.80321" lon="-0.58186">
        <ele>53</ele>
        <time>2017-01-12T15:56:20Z</time>
      </trkpt>
      <trkpt lat="45.80517" lon="-0.58017">
        <ele>50</ele>
        <time>2017-01-12T15:56:00Z</time>
      </trkpt>
      <trkpt lat="45.80564" lon="-0.58002">
        <ele>50</ele>
        <time>2017-01-12T15:55:40Z</time>
      </trkpt>
      <trkpt lat="45.80645" lon="-0.58">
        <ele>48</ele>
        <time>2017-01-12T15:55:20Z</time>
      </trkpt>
      <trkpt lat="45.80701" lon="-0.57941">
        <ele>50</ele>
        <time>2017-01-12T15:55:00Z</time>
      </trkpt>
      <trkpt lat="45.80749" lon="-0.57861">
        <ele>55</ele>
        <time>2017-01-12T15:54:40Z</time>
      </trkpt>
      <trkpt lat="45.80765" lon="-0.57794">
        <ele>60</ele>
        <time>2017-01-12T15:54:20Z</time>
      </trkpt>
      <trkpt lat="45.80896" lon="-0.57661">
        <ele>65</ele>
        <time>2017-01-12T15:54:00Z</time>
      </trkpt>
      <trkpt lat="45.80872" lon="-0.57594">
        <ele>66</ele>
        <time>2017-01-12T15:53:40Z</time>
      </trkpt>
      <trkpt lat="45.8098" lon="-0.57319">
        <ele>64</ele>
        <time>2017-01-12T15:53:20Z</time>
      </trkpt>
      <trkpt lat="45.81024" lon="-0.57262">
        <ele>63</ele>
        <time>2017-01-12T15:53:00Z</time>
      </trkpt>
      <trkpt lat="45.81167" lon="-0.571">
        <ele>60</ele>
        <time>2017-01-12T15:52:40Z</time>
      </trkpt>
      <trkpt lat="45.81258" lon="-0.57042">
        <ele>64</ele>
        <time>2017-01-12T15:52:20Z</time>
      </trkpt>
      <trkpt lat="45.81246" lon="-0.56896">
        <ele>67</ele>
        <time>2017-01-12T15:52:00Z</time>
      </trkpt>
      <trkpt lat="45.81373" lon="-0.56868">
        <ele>67</ele>
        <time>2017-01-12T15:51:40Z</time>
      </trkpt>
      <trkpt lat="45.81422" lon="-0.56878">
        <ele>64</ele>
        <time>2017-01-12T15:51:20Z</time>
      </trkpt>
      <trkpt lat="45.8151" lon="-0.56939">
        <ele>62</ele>
        <time>2017-01-12T15:51:00Z</time>
      </trkpt>
      <trkpt lat="45.81632" lon="-0.56958">
        <ele>57</ele>
        <time>2017-01-12T15:50:40Z</time>
      </trkpt>
      <trkpt lat="45.81865" lon="-0.56907">
        <ele>50</ele>
        <time>2017-01-12T15:50:20Z</time>
      </trkpt>
      <trkpt lat="45.82022" lon="-0.569">
        <ele>45</ele>
        <time>2017-01-12T15:50:00Z</time>
      </trkpt>
      <trkpt lat="45.82101" lon="-0.56873">
        <ele>46</ele>
        <time>2017-01-12T15:49:40Z</time>
      </trkpt>
      <trkpt lat="45.82256" lon="-0.56721">
        <ele>49</ele>
        <time>2017-01-12T15:49:20Z</time>
      </trkpt>
      <trkpt lat="45.82361" lon="-0.56687">
        <ele>52</ele>
        <time>2017-01-12T15:49:00Z</time>
      </trkpt>
      <trkpt lat="45.82376" lon="-0.56696">
        <ele>52</ele>
        <time>2017-01-12T15:48:40Z</time>
      </trkpt>
      <trkpt lat="45.82395" lon="-0.56728">
        <ele>52</ele>
        <time>2017-01-12T15:48:20Z</time>
      </trkpt>
      <trkpt lat="45.82446" lon="-0.56752">
        <ele>51</ele>
        <time>2017-01-12T15:48:00Z</time>
      </trkpt>
      <trkpt lat="45.82492" lon="-0.56792">
        <ele>51</ele>
        <time>2017-01-12T15:47:40Z</time>
      </trkpt>
      <trkpt lat="45.8252" lon="-0.56795">
        <ele>52</ele>
        <time>2017-01-12T15:47:20Z</time>
      </trkpt>
      <trkpt lat="45.82537" lon="-0.56821">
        <ele>52</ele>
        <time>2017-01-12T15:47:00Z</time>
      </trkpt>
      <trkpt lat="45.82766" lon="-0.56814">
        <ele>63</ele>
        <time>2017-01-12T15:46:40Z</time>
      </trkpt>
      <trkpt lat="45.82837" lon="-0.56805">
        <ele>63</ele>
        <time>2017-01-12T15:46:20Z</time>
      </trkpt>
      <trkpt lat="45.82907" lon="-0.56766">
        <ele>62</ele>
        <time>2017-01-12T15:46:00Z</time>
      </trkpt>
      <trkpt lat="45.83049" lon="-0.56793">
        <ele>58</ele>
        <time>2017-01-12T15:45:40Z</time>
      </trkpt>
      <trkpt lat="45.83178" lon="-0.56673">
        <ele>56</ele>
        <time>2017-01-12T15:45:20Z</time>
      </trkpt>
      <trkpt lat="45.83232" lon="-0.56601">
        <ele>55</ele>
        <time>2017-01-12T15:45:00Z</time>
      </trkpt>
      <trkpt lat="45.83294" lon="-0.5654">
        <ele>53</ele>
        <time>2017-01-12T15:44:40Z</time>
      </trkpt>
      <trkpt lat="45.83403" lon="-0.56377">
        <ele>54</ele>
        <time>2017-01-12T15:44:20Z</time>
      </trkpt>
      <trkpt lat="45.83392" lon="-0.563">
        <ele>55</ele>
        <time>2017-01-12T15:44:00Z</time>
      </trkpt>
      <trkpt lat="45.83405" lon="-0.56255">
        <ele>55</ele>
        <time>2017-01-12T15:43:40Z</time>
      </trkpt>
      <trkpt lat="45.83507" lon="-0.56146">
        <ele>54</ele>
        <time>2017-01-12T15:43:20Z</time>
      </trkpt>
      <trkpt lat="45.83544" lon="-0.56123">
        <ele>54</ele>
        <time>2017-01-12T15:43:00Z</time>
      </trkpt>
      <trkpt lat="45.83579" lon="-0.5616">
        <ele>52</ele>
        <time>2017-01-12T15:42:40Z</time>
      </trkpt>
      <trkpt lat="45.83588" lon="-0.56183">
        <ele>49</ele>
        <time>2017-01-12T15:42:20Z</time>
      </trkpt>
      <trkpt lat="45.83643" lon="-0.56185">
        <ele>46</ele>
        <time>2017-01-12T15:42:00Z</time>
      </trkpt>
      <trkpt lat="45.83665" lon="-0.56196">
        <ele>46</ele>
        <time>2017-01-12T15:41:40Z</time>
      </trkpt>
      <trkpt lat="45.83724" lon="-0.56176">
        <ele>38</ele>
        <time>2017-01-12T15:41:20Z</time>
      </trkpt>
      <trkpt lat="45.83786" lon="-0.56196">
        <ele>33</ele>
        <time>2017-01-12T15:41:00Z</time>
      </trkpt>
      <trkpt lat="45.83901" lon="-0.56158">
        <ele>35</ele>
        <time>2017-01-12T15:40:40Z</time>
      </trkpt>
      <trkpt lat="45.83999" lon="-0.56154">
        <ele>43</ele>
        <time>2017-01-12T15:40:20Z</time>
      </trkpt>
      <trkpt lat="45.8403" lon="-0.56126">
        <ele>48</ele>
        <time>2017-01-12T15:40:00Z</time>
      </trkpt>
      <trkpt lat="45.84121" lon="-0.56111">
        <ele>56</ele>
        <time>2017-01-12T15:39:40Z</time>
      </trkpt>
      <trkpt lat="45.84195" lon="-0.56088">
        <ele>62</ele>
        <time>2017-01-12T15:39:20Z</time>
      </trkpt>
      <trkpt lat="45.84176" lon="-0.56143">
        <ele>62</ele>
        <time>2017-01-12T15:39:00Z</time>
      </trkpt>
      <trkpt lat="45.84172" lon="-0.56186">
        <ele>62</ele>
        <time>2017-01-12T15:38:40Z</time>
      </trkpt>
      <trkpt lat="45.8422" lon="-0.56289">
        <ele>64</ele>
        <time>2017-01-12T15:38:20Z</time>
      </trkpt>
      <trkpt lat="45.84293" lon="-0.56262">
        <ele>68</ele>
        <time>2017-01-12T15:38:00Z</time>
      </trkpt>
      <trkpt lat="45.84335" lon="-0.56486">
        <ele>68</ele>
        <time>2017-01-12T15:37:40Z</time>
      </trkpt>
      <trkpt lat="45.84438" lon="-0.56486">
        <ele>72</ele>
        <time>2017-01-12T15:37:20Z</time>
      </trkpt>
      <trkpt lat="45.8452" lon="-0.56629">
        <ele>72</ele>
        <time>2017-01-12T15:37:00Z</time>
      </trkpt>
      <trkpt lat="45.84564" lon="-0.56682">
        <ele>70</ele>
        <time>2017-01-12T15:36:40Z</time>
      </trkpt>
      <trkpt lat="45.84605" lon="-0.56788">
        <ele>70</ele>
        <time>2017-01-12T15:36:20Z</time>
      </trkpt>
      <trkpt lat="45.84616" lon="-0.56944">
        <ele>71</ele>
        <time>2017-01-12T15:36:00Z</time>
      </trkpt>
      <trkpt lat="45.84594" lon="-0.57001">
        <ele>72</ele>
        <time>2017-01-12T15:35:40Z</time>
      </trkpt>
      <trkpt lat="45.84585" lon="-0.57051">
        <ele>71</ele>
        <time>2017-01-12T15:35:20Z</time>
      </trkpt>
      <trkpt lat="45.84602" lon="-0.57232">
        <ele>67</ele>
        <time>2017-01-12T15:35:00Z</time>
      </trkpt>
      <trkpt lat="45.8467" lon="-0.57293">
        <ele>68</ele>
        <time>2017-01-12T15:34:40Z</time>
      </trkpt>
      <trkpt lat="45.84747" lon="-0.57452">
        <ele>64</ele>
        <time>2017-01-12T15:34:20Z</time>
      </trkpt>
      <trkpt lat="45.84849" lon="-0.57572">
        <ele>64</ele>
        <time>2017-01-12T15:34:00Z</time>
      </trkpt>
      <trkpt lat="45.84855" lon="-0.57597">
        <ele>64</ele>
        <time>2017-01-12T15:33:40Z</time>
      </trkpt>
      <trkpt lat="45.85005" lon="-0.57786">
        <ele>63</ele>
        <time>2017-01-12T15:33:20Z</time>
      </trkpt>
      <trkpt lat="45.8506" lon="-0.57971">
        <ele>61</ele>
        <time>2017-01-12T15:33:00Z</time>
      </trkpt>
      <trkpt lat="45.85136" lon="-0.57777">
        <ele>56</ele>
        <time>2017-01-12T15:32:40Z</time>
      </trkpt>
      <trkpt lat="45.85169" lon="-0.57792">
        <ele>52</ele>
        <time>2017-01-12T15:32:20Z</time>
      </trkpt>
      <trkpt lat="45.85259" lon="-0.57715">
        <ele>48</ele>
        <time>2017-01-12T15:32:00Z</time>
      </trkpt>
      <trkpt lat="45.85281" lon="-0.57714">
        <ele>48</ele>
        <time>2017-01-12T15:31:40Z</time>
      </trkpt>
      <trkpt lat="45.85376" lon="-0.57611">
        <ele>47</ele>
        <time>2017-01-12T15:31:20Z</time>
      </trkpt>
      <trkpt lat="45.85416" lon="-0.5755">
        <ele>47</ele>
        <time>2017-01-12T15:31:00Z</time>
      </trkpt>
      <trkpt lat="45.85453" lon="-0.57565">
        <ele>47</ele>
        <time>2017-01-12T15:30:40Z</time>
      </trkpt>
      <trkpt lat="45.85537" lon="-0.57491">
        <ele>47</ele>
        <time>2017-01-12T15:30:20Z</time>
      </trkpt>
      <trkpt lat="45.85566" lon="-0.57539">
        <ele>46</ele>
        <time>2017-01-12T15:30:00Z</time>
      </trkpt>
      <trkpt lat="45.85645" lon="-0.57644">
        <ele>47</ele>
        <time>2017-01-12T15:29:40Z</time>
      </trkpt>
      <trkpt lat="45.8563" lon="-0.57655">
        <ele>47</ele>
        <time>2017-01-12T15:29:20Z</time>
      </trkpt>
      <trkpt lat="45.8562" lon="-0.57674">
        <ele>46</ele>
        <time>2017-01-12T15:29:00Z</time>
      </trkpt>
      <trkpt lat="45.85646" lon="-0.57744">
        <ele>46</ele>
        <time>2017-01-12T15:28:40Z</time>
      </trkpt>
      <trkpt lat="45.85682" lon="-0.57852">
        <ele>45</ele>
        <time>2017-01-12T15:28:20Z</time>
      </trkpt>
      <trkpt lat="45.857" lon="-0.57857">
        <ele>45</ele>
        <time>2017-01-12T15:28:00Z</time>
      </trkpt>
      <trkpt lat="45.85804" lon="-0.57982">
        <ele>45</ele>
        <time>2017-01-12T15:27:40Z</time>
      </trkpt>
      <trkpt lat="45.85906" lon="-0.58001">
        <ele>45</ele>
        <time>2017-01-12T15:27:20Z</time>
      </trkpt>
      <trkpt lat="45.8592" lon="-0.57969">
        <ele>46</ele>
        <time>2017-01-12T15:27:00Z</time>
      </trkpt>
      <trkpt lat="45.85963" lon="-0.57969">
        <ele>46</ele>
        <time>2017-01-12T15:26:40Z</time>
      </trkpt>
      <trkpt lat="45.86083" lon="-0.57937">
        <ele>47</ele>
        <time>2017-01-12T15:26:20Z</time>
      </trkpt>
      <trkpt lat="45.86098" lon="-0.5795">
        <ele>46</ele>
        <time>2017-01-12T15:26:00Z</time>
      </trkpt>
      <trkpt lat="45.86163" lon="-0.57801">
        <ele>53</ele>
        <time>2017-01-12T15:25:40Z</time>
      </trkpt>
      <trkpt lat="45.86183" lon="-0.57922">
        <ele>48</ele>
        <time>2017-01-12T15:25:20Z</time>
      </trkpt>
      <trkpt lat="45.8622" lon="-0.58007">
        <ele>44</ele>
        <time>2017-01-12T15:25:00Z</time>
      </trkpt>
      <trkpt lat="45.86282" lon="-0.58091">
        <ele>43</ele>
        <time>2017-01-12T15:24:40Z</time>
      </trkpt>
      <trkpt lat="45.86401" lon="-0.58155">
        <ele>43</ele>
        <time>2017-01-12T15:24:20Z</time>
      </trkpt>
      <trkpt lat="45.86433" lon="-0.58204">
        <ele>37</ele>
        <time>2017-01-12T15:24:00Z</time>
      </trkpt>
      <trkpt lat="45.86468" lon="-0.58243">
        <ele>35</ele>
        <time>2017-01-12T15:23:40Z</time>
      </trkpt>
      <trkpt lat="45.8651" lon="-0.58333">
        <ele>29</ele>
        <time>2017-01-12T15:23:20Z</time>
      </trkpt>
      <trkpt lat="45.86531" lon="-0.58467">
        <ele>29</ele>
        <time>2017-01-12T15:23:00Z</time>
      </trkpt>
      <trkpt lat="45.86567" lon="-0.58635">
        <ele>34</ele>
        <time>2017-01-12T15:22:40Z</time>
      </trkpt>
      <trkpt lat="45.86565" lon="-0.58806">
        <ele>30</ele>
        <time>2017-01-12T15:22:20Z</time>
      </trkpt>
      <trkpt lat="45.86688" lon="-0.58831">
        <ele>22</ele>
        <time>2017-01-12T15:22:00Z</time>
      </trkpt>
      <trkpt lat="45.86715" lon="-0.58811">
        <ele>22</ele>
        <time>2017-01-12T15:21:40Z</time>
      </trkpt>
      <trkpt lat="45.8674" lon="-0.58811">
        <ele>21</ele>
        <time>2017-01-12T15:21:20Z</time>
      </trkpt>
      <trkpt lat="45.86779" lon="-0.58863">
        <ele>20</ele>
        <time>2017-01-12T15:21:00Z</time>
      </trkpt>
      <trkpt lat="45.86829" lon="-0.5889">
        <ele>21</ele>
        <time>2017-01-12T15:20:40Z</time>
      </trkpt>
      <trkpt lat="45.86866" lon="-0.58998">
        <ele>24</ele>
        <time>2017-01-12T15:20:20Z</time>
      </trkpt>
      <trkpt lat="45.86882" lon="-0.59022">
        <ele>25</ele>
        <time>2017-01-12T15:20:00Z</time>
      </trkpt>
      <trkpt lat="45.86928" lon="-0.5901">
        <ele>31</ele>
        <time>2017-01-12T15:19:40Z</time>
      </trkpt>
      <trkpt lat="45.87018" lon="-0.58913">
        <ele>45</ele>
        <time>2017-01-12T15:19:20Z</time>
      </trkpt>
      <trkpt lat="45.87072" lon="-0.58904">
        <ele>48</ele>
        <time>2017-01-12T15:19:00Z</time>
      </trkpt>
      <trkpt lat="45.87156" lon="-0.58843">
        <ele>55</ele>
        <time>2017-01-12T15:18:40Z</time>
      </trkpt>
      <trkpt lat="45.87196" lon="-0.58869">
        <ele>54</ele>
        <time>2017-01-12T15:18:20Z</time>
      </trkpt>
      <trkpt lat="45.87239" lon="-0.58879">
        <ele>54</ele>
        <time>2017-01-12T15:18:00Z</time>
      </trkpt>
      <trkpt lat="45.87315" lon="-0.58814">
        <ele>53</ele>
        <time>2017-01-12T15:17:40Z</time>
      </trkpt>
      <trkpt lat="45.87364" lon="-0.58817">
        <ele>50</ele>
        <time>2017-01-12T15:17:20Z</time>
      </trkpt>
      <trkpt lat="45.87411" lon="-0.58789">
        <ele>49</ele>
        <time>2017-01-12T15:17:00Z</time>
      </trkpt>
      <trkpt lat="45.87425" lon="-0.58835">
        <ele>45</ele>
        <time>2017-01-12T15:16:40Z</time>
      </trkpt>
      <trkpt lat="45.87457" lon="-0.58842">
        <ele>42</ele>
        <time>2017-01-12T15:16:20Z</time>
      </trkpt>
      <trkpt lat="45.87493" lon="-0.58813">
        <ele>44</ele>
        <time>2017-01-12T15:16:00Z</time>
      </trkpt>
      <trkpt lat="45.87537" lon="-0.58924">
        <ele>33</ele>
        <time>2017-01-12T15:15:40Z</time>
      </trkpt>
      <trkpt lat="45.87557" lon="-0.58887">
        <ele>35</ele>
        <time>2017-01-12T15:15:20Z</time>
      </trkpt>
      <trkpt lat="45.87708" lon="-0.58767">
        <ele>35</ele>
        <time>2017-01-12T15:15:00Z</time>
      </trkpt>
      <trkpt lat="45.87745" lon="-0.58753">
        <ele>36</ele>
        <time>2017-01-12T15:14:40Z</time>
      </trkpt>
      <trkpt lat="45.87996" lon="-0.58787">
        <ele>38</ele>
        <time>2017-01-12T15:14:20Z</time>
      </trkpt>
      <trkpt lat="45.88108" lon="-0.58757">
        <ele>41</ele>
        <time>2017-01-12T15:14:00Z</time>
      </trkpt>
      <trkpt lat="45.88217" lon="-0.58716">
        <ele>44</ele>
        <time>2017-01-12T15:13:40Z</time>
      </trkpt>
      <trkpt lat="45.88285" lon="-0.58708">
        <ele>43</ele>
        <time>2017-01-12T15:13:20Z</time>
      </trkpt>
      <trkpt lat="45.88321" lon="-0.58825">
        <ele>47</ele>
        <time>2017-01-12T15:13:00Z</time>
      </trkpt>
      <trkpt lat="45.88352" lon="-0.5885">
        <ele>50</ele>
        <time>2017-01-12T15:12:40Z</time>
      </trkpt>
      <trkpt lat="45.88412" lon="-0.58952">
        <ele>53</ele>
        <time>2017-01-12T15:12:20Z</time>
      </trkpt>
      <trkpt lat="45.88426" lon="-0.58993">
        <ele>55</ele>
        <time>2017-01-12T15:12:00Z</time>
      </trkpt>
      <trkpt lat="45.8845" lon="-0.59014">
        <ele>59</ele>
        <time>2017-01-12T15:11:40Z</time>
      </trkpt>
      <trkpt lat="45.88466" lon="-0.59068">
        <ele>61</ele>
        <time>2017-01-12T15:11:20Z</time>
      </trkpt>
      <trkpt lat="45.88546" lon="-0.59216">
        <ele>70</ele>
        <time>2017-01-12T15:11:00Z</time>
      </trkpt>
      <trkpt lat="45.88516" lon="-0.5924">
        <ele>69</ele>
        <time>2017-01-12T15:10:40Z</time>
      </trkpt>
      <trkpt lat="45.88565" lon="-0.59314">
        <ele>67</ele>
        <time>2017-01-12T15:10:20Z</time>
      </trkpt>
      <trkpt lat="45.88614" lon="-0.59436">
        <ele>59</ele>
        <time>2017-01-12T15:10:00Z</time>
      </trkpt>
      <trkpt lat="45.88708" lon="-0.59601">
        <ele>44</ele>
        <time>2017-01-12T15:09:40Z</time>
      </trkpt>
      <trkpt lat="45.88934" lon="-0.59215">
        <ele>44</ele>
        <time>2017-01-12T15:09:20Z</time>
      </trkpt>
      <trkpt lat="45.88937" lon="-0.59229">
        <ele>44</ele>
        <time>2017-01-12T15:09:00Z</time>
      </trkpt>
      <trkpt lat="45.88902" lon="-0.59327">
        <ele>43</ele>
        <time>2017-01-12T15:08:40Z</time>
      </trkpt>
      <trkpt lat="45.88928" lon="-0.59391">
        <ele>40</ele>
        <time>2017-01-12T15:08:20Z</time>
      </trkpt>
      <trkpt lat="45.8891" lon="-0.59541">
        <ele>40</ele>
        <time>2017-01-12T15:08:00Z</time>
      </trkpt>
      <trkpt lat="45.88924" lon="-0.59568">
        <ele>46</ele>
        <time>2017-01-12T15:07:40Z</time>
      </trkpt>
      <trkpt lat="45.88941" lon="-0.59623">
        <ele>50</ele>
        <time>2017-01-12T15:07:20Z</time>
      </trkpt>
      <trkpt lat="45.88966" lon="-0.59647">
        <ele>51</ele>
        <time>2017-01-12T15:07:00Z</time>
      </trkpt>
      <trkpt lat="45.88973" lon="-0.59731">
        <ele>54</ele>
        <time>2017-01-12T15:06:40Z</time>
      </trkpt>
      <trkpt lat="45.89005" lon="-0.5982">
        <ele>61</ele>
        <time>2017-01-12T15:06:20Z</time>
      </trkpt>
      <trkpt lat="45.89035" lon="-0.59853">
        <ele>64</ele>
        <time>2017-01-12T15:06:00Z</time>
      </trkpt>
      <trkpt lat="45.89069" lon="-0.59788">
        <ele>64</ele>
        <time>2017-01-12T15:05:40Z</time>
      </trkpt>
      <trkpt lat="45.8914" lon="-0.5973">
        <ele>68</ele>
        <time>2017-01-12T15:05:20Z</time>
      </trkpt>
      <trkpt lat="45.89206" lon="-0.59653">
        <ele>71</ele>
        <time>2017-01-12T15:05:00Z</time>
      </trkpt>
      <trkpt lat="45.89259" lon="-0.5952">
        <ele>76</ele>
        <time>2017-01-12T15:04:40Z</time>
      </trkpt>
      <trkpt lat="45.89274" lon="-0.59512">
        <ele>76</ele>
        <time>2017-01-12T15:04:20Z</time>
      </trkpt>
      <trkpt lat="45.89312" lon="-0.59532">
        <ele>76</ele>
        <time>2017-01-12T15:04:00Z</time>
      </trkpt>
      <trkpt lat="45.89355" lon="-0.59523">
        <ele>73</ele>
        <time>2017-01-12T15:03:40Z</time>
      </trkpt>
      <trkpt lat="45.89405" lon="-0.59474">
        <ele>71</ele>
        <time>2017-01-12T15:03:20Z</time>
      </trkpt>
      <trkpt lat="45.89439" lon="-0.59466">
        <ele>69</ele>
        <time>2017-01-12T15:03:00Z</time>
      </trkpt>
      <trkpt lat="45.89502" lon="-0.59476">
        <ele>66</ele>
        <time>2017-01-12T15:02:40Z</time>
      </trkpt>
      <trkpt lat="45.89675" lon="-0.59411">
        <ele>68</ele>
        <time>2017-01-12T15:02:20Z</time>
      </trkpt>
      <trkpt lat="45.89667" lon="-0.59382">
        <ele>69</ele>
        <time>2017-01-12T15:02:00Z</time>
      </trkpt>
      <trkpt lat="45.89722" lon="-0.59226">
        <ele>80</ele>
        <time>2017-01-12T15:01:40Z</time>
      </trkpt>
      <trkpt lat="45.89696" lon="-0.59146">
        <ele>84</ele>
        <time>2017-01-12T15:01:20Z</time>
      </trkpt>
      <trkpt lat="45.89774" lon="-0.58975">
        <ele>83</ele>
        <time>2017-01-12T15:01:00Z</time>
      </trkpt>
      <trkpt lat="45.8979" lon="-0.59004">
        <ele>81</ele>
        <time>2017-01-12T15:00:40Z</time>
      </trkpt>
      <trkpt lat="45.89846" lon="-0.58972">
        <ele>79</ele>
        <time>2017-01-12T15:00:20Z</time>
      </trkpt>
      <trkpt lat="45.9003" lon="-0.58953">
        <ele>80</ele>
        <time>2017-01-12T15:00:00Z</time>
      </trkpt>
      <trkpt lat="45.90028" lon="-0.58913">
        <ele>83</ele>
        <time>2017-01-12T14:59:40Z</time>
      </trkpt>
      <trkpt lat="45.90007" lon="-0.58851">
        <ele>85</ele>
        <time>2017-01-12T14:59:20Z</time>
      </trkpt>
      <trkpt lat="45.90046" lon="-0.58732">
        <ele>91</ele>
        <time>2017-01-12T14:59:00Z</time>
      </trkpt>
      <trkpt lat="45.90117" lon="-0.58707">
        <ele>91</ele>
        <time>2017-01-12T14:58:40Z</time>
      </trkpt>
      <trkpt lat="45.90121" lon="-0.58701">
        <ele>91</ele>
        <time>2017-01-12T14:58:20Z</time>
      </trkpt>
      <trkpt lat="45.90107" lon="-0.58665">
        <ele>92</ele>
        <time>2017-01-12T14:58:00Z</time>
      </trkpt>
      <trkpt lat="45.90057" lon="-0.58615">
        <ele>92</ele>
        <time>2017-01-12T14:57:40Z</time>
      </trkpt>
      <trkpt lat="45.90093" lon="-0.58547">
        <ele>91</ele>
        <time>2017-01-12T14:57:20Z</time>
      </trkpt>
      <trkpt lat="45.90096" lon="-0.58478">
        <ele>91</ele>
        <time>2017-01-12T14:57:00Z</time>
      </trkpt>
      <trkpt lat="45.90134" lon="-0.58431">
        <ele>91</ele>
        <time>2017-01-12T14:56:40Z</time>
      </trkpt>
      <trkpt lat="45.90152" lon="-0.58404">
        <ele>90</ele>
        <time>2017-01-12T14:56:20Z</time>
      </trkpt>
      <trkpt lat="45.90233" lon="-0.58375">
        <ele>89</ele>
        <time>2017-01-12T14:56:00Z</time>
      </trkpt>
      <trkpt lat="45.90304" lon="-0.58222">
        <ele>85</ele>
        <time>2017-01-12T14:55:40Z</time>
      </trkpt>
      <trkpt lat="45.90303" lon="-0.58152">
        <ele>83</ele>
        <time>2017-01-12T14:55:20Z</time>
      </trkpt>
      <trkpt lat="45.90311" lon="-0.58092">
        <ele>82</ele>
        <time>2017-01-12T14:55:00Z</time>
      </trkpt>
      <trkpt lat="45.90338" lon="-0.58014">
        <ele>81</ele>
        <time>2017-01-12T14:54:40Z</time>
      </trkpt>
      <trkpt lat="45.90306" lon="-0.57953">
        <ele>81</ele>
        <time>2017-01-12T14:54:20Z</time>
      </trkpt>
      <trkpt lat="45.90319" lon="-0.5791">
        <ele>83</ele>
        <time>2017-01-12T14:54:00Z</time>
      </trkpt>
      <trkpt lat="45.90357" lon="-0.57849">
        <ele>83</ele>
        <time>2017-01-12T14:53:40Z</time>
      </trkpt>
      <trkpt lat="45.90405" lon="-0.57597">
        <ele>80</ele>
        <time>2017-01-12T14:53:20Z</time>
      </trkpt>
      <trkpt lat="45.90428" lon="-0.57552">
        <ele>80</ele>
        <time>2017-01-12T14:53:00Z</time>
      </trkpt>
      <trkpt lat="45.90493" lon="-0.57515">
        <ele>80</ele>
        <time>2017-01-12T14:52:40Z</time>
      </trkpt>
      <trkpt lat="45.90532" lon="-0.57478">
        <ele>80</ele>
        <time>2017-01-12T14:52:20Z</time>
      </trkpt>
      <trkpt lat="45.90634" lon="-0.57436">
        <ele>82</ele>
        <time>2017-01-12T14:52:00Z</time>
      </trkpt>
      <trkpt lat="45.90626" lon="-0.57388">
        <ele>80</ele>
        <time>2017-01-12T14:51:40Z</time>
      </trkpt>
      <trkpt lat="45.90667" lon="-0.57185">
        <ele>78</ele>
        <time>2017-01-12T14:51:20Z</time>
      </trkpt>
      <trkpt lat="45.90742" lon="-0.57165">
        <ele>82</ele>
        <time>2017-01-12T14:51:00Z</time>
      </trkpt>
      <trkpt lat="45.90769" lon="-0.57117">
        <ele>83</ele>
        <time>2017-01-12T14:50:40Z</time>
      </trkpt>
      <trkpt lat="45.90828" lon="-0.57117">
        <ele>83</ele>
        <time>2017-01-12T14:50:20Z</time>
      </trkpt>
      <trkpt lat="45.90848" lon="-0.57125">
        <ele>84</ele>
        <time>2017-01-12T14:50:00Z</time>
      </trkpt>
      <trkpt lat="45.90905" lon="-0.57125">
        <ele>83</ele>
        <time>2017-01-12T14:49:40Z</time>
      </trkpt>
      <trkpt lat="45.91013" lon="-0.57037">
        <ele>79</ele>
        <time>2017-01-12T14:49:20Z</time>
      </trkpt>
      <trkpt lat="45.91147" lon="-0.56992">
        <ele>73</ele>
        <time>2017-01-12T14:49:00Z</time>
      </trkpt>
      <trkpt lat="45.91147" lon="-0.56992">
        <ele>73</ele>
        <time>2017-01-12T14:49:00Z</time>
      </trkpt>
    </trkseg>
  </trk>
</gpx>